<?xml version="1.0" encoding="UTF-8" standalone="no" ?>
<gpx xmlns="http://www.topografix.com/GPX/1/1" xmlns:xsi="http://www.w3.org/2001/XMLSchema-instance" xsi:schemaLocation="http://www.topografix.com/GPX/1/1 http://www.topografix.com/GPX/1/1/gpx.xsd" version="1.1" creator="VisuGPX - https://www.visugpx.com">
  <metadata>
    <name>ST eulalie en Royans-St Laurent en Royans</name>
    <desc><![CDATA[boucle idéal pour faire des scéances]]></desc>
  </metadata>
  <trk>
    <name><![CDATA[4*5 min]]></name>
    <desc><![CDATA[dure reprise, j'avance pad trop]]></desc>
    <trkseg>
      <trkpt lat="45.04771" lon="5.34005">
        <ele>308.60000610352</ele>
        <time>2012-07-04T16:24:38.000Z</time>
      </trkpt>
      <trkpt lat="45.04777" lon="5.33996">
        <ele>304.20001220703</ele>
        <time>2012-07-04T16:24:48.000Z</time>
      </trkpt>
      <trkpt lat="45.04777" lon="5.33993">
        <ele>305.79998779297</ele>
        <time>2012-07-04T16:24:49.000Z</time>
      </trkpt>
      <trkpt lat="45.04781" lon="5.33979">
        <ele>305.20001220703</ele>
        <time>2012-07-04T16:24:55.000Z</time>
      </trkpt>
      <trkpt lat="45.04787" lon="5.33965">
        <ele>303.39999389648</ele>
        <time>2012-07-04T16:25:00.000Z</time>
      </trkpt>
      <trkpt lat="45.0479" lon="5.33954">
        <ele>300.39999389648</ele>
        <time>2012-07-04T16:25:03.000Z</time>
      </trkpt>
      <trkpt lat="45.04796" lon="5.33934">
        <ele>298</ele>
        <time>2012-07-04T16:25:09.000Z</time>
      </trkpt>
      <trkpt lat="45.048" lon="5.33912">
        <ele>297.60000610352</ele>
        <time>2012-07-04T16:25:15.000Z</time>
      </trkpt>
      <trkpt lat="45.04803" lon="5.3389">
        <ele>298</ele>
        <time>2012-07-04T16:25:21.000Z</time>
      </trkpt>
      <trkpt lat="45.04806" lon="5.33875">
        <ele>295.20001220703</ele>
        <time>2012-07-04T16:25:26.000Z</time>
      </trkpt>
      <trkpt lat="45.0481" lon="5.33852">
        <ele>295.20001220703</ele>
        <time>2012-07-04T16:25:32.000Z</time>
      </trkpt>
      <trkpt lat="45.04812" lon="5.33828">
        <ele>298</ele>
        <time>2012-07-04T16:25:38.000Z</time>
      </trkpt>
      <trkpt lat="45.04816" lon="5.33809">
        <ele>300.39999389648</ele>
        <time>2012-07-04T16:25:43.000Z</time>
      </trkpt>
      <trkpt lat="45.0482" lon="5.33787">
        <ele>304.79998779297</ele>
        <time>2012-07-04T16:25:49.000Z</time>
      </trkpt>
      <trkpt lat="45.04825" lon="5.33765">
        <ele>305.20001220703</ele>
        <time>2012-07-04T16:25:55.000Z</time>
      </trkpt>
      <trkpt lat="45.04828" lon="5.33746">
        <ele>304.20001220703</ele>
        <time>2012-07-04T16:26:00.000Z</time>
      </trkpt>
      <trkpt lat="45.04832" lon="5.33721">
        <ele>302.79998779297</ele>
        <time>2012-07-04T16:26:06.000Z</time>
      </trkpt>
      <trkpt lat="45.04835" lon="5.33696">
        <ele>300.39999389648</ele>
        <time>2012-07-04T16:26:12.000Z</time>
      </trkpt>
      <trkpt lat="45.04838" lon="5.33689">
        <ele>300</ele>
        <time>2012-07-04T16:26:14.000Z</time>
      </trkpt>
      <trkpt lat="45.04843" lon="5.33665">
        <ele>299</ele>
        <time>2012-07-04T16:26:20.000Z</time>
      </trkpt>
      <trkpt lat="45.04847" lon="5.33653">
        <ele>299</ele>
        <time>2012-07-04T16:26:23.000Z</time>
      </trkpt>
      <trkpt lat="45.04852" lon="5.33625">
        <ele>297.60000610352</ele>
        <time>2012-07-04T16:26:30.000Z</time>
      </trkpt>
      <trkpt lat="45.04856" lon="5.33609">
        <ele>297</ele>
        <time>2012-07-04T16:26:34.000Z</time>
      </trkpt>
      <trkpt lat="45.04858" lon="5.33588">
        <ele>297</ele>
        <time>2012-07-04T16:26:39.000Z</time>
      </trkpt>
      <trkpt lat="45.04862" lon="5.33566">
        <ele>297.60000610352</ele>
        <time>2012-07-04T16:26:45.000Z</time>
      </trkpt>
      <trkpt lat="45.04869" lon="5.33549">
        <ele>297.60000610352</ele>
        <time>2012-07-04T16:26:50.000Z</time>
      </trkpt>
      <trkpt lat="45.0488" lon="5.33526">
        <ele>295.60000610352</ele>
        <time>2012-07-04T16:26:57.000Z</time>
      </trkpt>
      <trkpt lat="45.04888" lon="5.33509">
        <ele>295.60000610352</ele>
        <time>2012-07-04T16:27:02.000Z</time>
      </trkpt>
      <trkpt lat="45.04891" lon="5.33502">
        <ele>296.20001220703</ele>
        <time>2012-07-04T16:27:04.000Z</time>
      </trkpt>
      <trkpt lat="45.04902" lon="5.33477">
        <ele>297</ele>
        <time>2012-07-04T16:27:11.000Z</time>
      </trkpt>
      <trkpt lat="45.04911" lon="5.33462">
        <ele>296.60000610352</ele>
        <time>2012-07-04T16:27:16.000Z</time>
      </trkpt>
      <trkpt lat="45.0492" lon="5.33446">
        <ele>297</ele>
        <time>2012-07-04T16:27:21.000Z</time>
      </trkpt>
      <trkpt lat="45.04929" lon="5.3343">
        <ele>297</ele>
        <time>2012-07-04T16:27:26.000Z</time>
      </trkpt>
      <trkpt lat="45.04938" lon="5.33408">
        <ele>297.60000610352</ele>
        <time>2012-07-04T16:27:32.000Z</time>
      </trkpt>
      <trkpt lat="45.04944" lon="5.33388">
        <ele>296.20001220703</ele>
        <time>2012-07-04T16:27:37.000Z</time>
      </trkpt>
      <trkpt lat="45.04949" lon="5.33366">
        <ele>295.60000610352</ele>
        <time>2012-07-04T16:27:42.000Z</time>
      </trkpt>
      <trkpt lat="45.04958" lon="5.33339">
        <ele>296.20001220703</ele>
        <time>2012-07-04T16:27:49.000Z</time>
      </trkpt>
      <trkpt lat="45.04959" lon="5.33335">
        <ele>296.60000610352</ele>
        <time>2012-07-04T16:27:50.000Z</time>
      </trkpt>
      <trkpt lat="45.04967" lon="5.33312">
        <ele>295.60000610352</ele>
        <time>2012-07-04T16:27:56.000Z</time>
      </trkpt>
      <trkpt lat="45.04972" lon="5.33294">
        <ele>296.20001220703</ele>
        <time>2012-07-04T16:28:00.000Z</time>
      </trkpt>
      <trkpt lat="45.04977" lon="5.33273">
        <ele>297</ele>
        <time>2012-07-04T16:28:05.000Z</time>
      </trkpt>
      <trkpt lat="45.04983" lon="5.33247">
        <ele>299</ele>
        <time>2012-07-04T16:28:11.000Z</time>
      </trkpt>
      <trkpt lat="45.0499" lon="5.33224">
        <ele>294.20001220703</ele>
        <time>2012-07-04T16:28:16.000Z</time>
      </trkpt>
      <trkpt lat="45.04997" lon="5.33205">
        <ele>289.39999389648</ele>
        <time>2012-07-04T16:28:20.000Z</time>
      </trkpt>
      <trkpt lat="45.05002" lon="5.33192">
        <ele>287</ele>
        <time>2012-07-04T16:28:23.000Z</time>
      </trkpt>
      <trkpt lat="45.05014" lon="5.33173">
        <ele>285.60000610352</ele>
        <time>2012-07-04T16:28:28.000Z</time>
      </trkpt>
      <trkpt lat="45.05014" lon="5.33146">
        <ele>284.60000610352</ele>
        <time>2012-07-04T16:28:34.000Z</time>
      </trkpt>
      <trkpt lat="45.05005" lon="5.33123">
        <ele>285</ele>
        <time>2012-07-04T16:28:40.000Z</time>
      </trkpt>
      <trkpt lat="45.05001" lon="5.33116">
        <ele>286</ele>
        <time>2012-07-04T16:28:42.000Z</time>
      </trkpt>
      <trkpt lat="45.04984" lon="5.33097">
        <ele>289.39999389648</ele>
        <time>2012-07-04T16:28:49.000Z</time>
      </trkpt>
      <trkpt lat="45.04966" lon="5.33087">
        <ele>289.39999389648</ele>
        <time>2012-07-04T16:28:55.000Z</time>
      </trkpt>
      <trkpt lat="45.04954" lon="5.33071">
        <ele>288</ele>
        <time>2012-07-04T16:29:00.000Z</time>
      </trkpt>
      <trkpt lat="45.04941" lon="5.33053">
        <ele>286.60000610352</ele>
        <time>2012-07-04T16:29:06.000Z</time>
      </trkpt>
      <trkpt lat="45.04926" lon="5.33048">
        <ele>286</ele>
        <time>2012-07-04T16:29:11.000Z</time>
      </trkpt>
      <trkpt lat="45.0491" lon="5.33046">
        <ele>284.60000610352</ele>
        <time>2012-07-04T16:29:16.000Z</time>
      </trkpt>
      <trkpt lat="45.04893" lon="5.33035">
        <ele>280.79998779297</ele>
        <time>2012-07-04T16:29:22.000Z</time>
      </trkpt>
      <trkpt lat="45.04875" lon="5.33028">
        <ele>277.79998779297</ele>
        <time>2012-07-04T16:29:28.000Z</time>
      </trkpt>
      <trkpt lat="45.04855" lon="5.33025">
        <ele>274.39999389648</ele>
        <time>2012-07-04T16:29:34.000Z</time>
      </trkpt>
      <trkpt lat="45.04839" lon="5.33029">
        <ele>272.60000610352</ele>
        <time>2012-07-04T16:29:39.000Z</time>
      </trkpt>
      <trkpt lat="45.04824" lon="5.33036">
        <ele>270.60000610352</ele>
        <time>2012-07-04T16:29:44.000Z</time>
      </trkpt>
      <trkpt lat="45.04809" lon="5.33046">
        <ele>270.60000610352</ele>
        <time>2012-07-04T16:29:49.000Z</time>
      </trkpt>
      <trkpt lat="45.04793" lon="5.33052">
        <ele>269.60000610352</ele>
        <time>2012-07-04T16:29:54.000Z</time>
      </trkpt>
      <trkpt lat="45.04778" lon="5.33049">
        <ele>269.20001220703</ele>
        <time>2012-07-04T16:29:59.000Z</time>
      </trkpt>
      <trkpt lat="45.04783" lon="5.3303">
        <ele>265.39999389648</ele>
        <time>2012-07-04T16:30:03.000Z</time>
      </trkpt>
      <trkpt lat="45.04786" lon="5.33028">
        <ele>264.39999389648</ele>
        <time>2012-07-04T16:30:04.000Z</time>
      </trkpt>
      <trkpt lat="45.04808" lon="5.33016">
        <ele>264</ele>
        <time>2012-07-04T16:30:11.000Z</time>
      </trkpt>
      <trkpt lat="45.04819" lon="5.33008">
        <ele>261</ele>
        <time>2012-07-04T16:30:15.000Z</time>
      </trkpt>
      <trkpt lat="45.04836" lon="5.32998">
        <ele>258.60000610352</ele>
        <time>2012-07-04T16:30:21.000Z</time>
      </trkpt>
      <trkpt lat="45.04852" lon="5.32991">
        <ele>257.60000610352</ele>
        <time>2012-07-04T16:30:26.000Z</time>
      </trkpt>
      <trkpt lat="45.04867" lon="5.32988">
        <ele>255.80000305176</ele>
        <time>2012-07-04T16:30:31.000Z</time>
      </trkpt>
      <trkpt lat="45.04882" lon="5.32981">
        <ele>255.80000305176</ele>
        <time>2012-07-04T16:30:36.000Z</time>
      </trkpt>
      <trkpt lat="45.049" lon="5.32978">
        <ele>254.39999389648</ele>
        <time>2012-07-04T16:30:42.000Z</time>
      </trkpt>
      <trkpt lat="45.04913" lon="5.32973">
        <ele>252.39999389648</ele>
        <time>2012-07-04T16:30:46.000Z</time>
      </trkpt>
      <trkpt lat="45.04925" lon="5.32968">
        <ele>252</ele>
        <time>2012-07-04T16:30:50.000Z</time>
      </trkpt>
      <trkpt lat="45.04943" lon="5.3297">
        <ele>250</ele>
        <time>2012-07-04T16:30:56.000Z</time>
      </trkpt>
      <trkpt lat="45.04946" lon="5.32959">
        <ele>248.60000610352</ele>
        <time>2012-07-04T16:31:00.000Z</time>
      </trkpt>
      <trkpt lat="45.0494" lon="5.32958">
        <ele>248</ele>
        <time>2012-07-04T16:31:02.000Z</time>
      </trkpt>
      <trkpt lat="45.04916" lon="5.32955">
        <ele>248.60000610352</ele>
        <time>2012-07-04T16:31:10.000Z</time>
      </trkpt>
      <trkpt lat="45.04899" lon="5.32953">
        <ele>248.60000610352</ele>
        <time>2012-07-04T16:31:15.000Z</time>
      </trkpt>
      <trkpt lat="45.04884" lon="5.32949">
        <ele>250</ele>
        <time>2012-07-04T16:31:20.000Z</time>
      </trkpt>
      <trkpt lat="45.04872" lon="5.3294">
        <ele>250.39999389648</ele>
        <time>2012-07-04T16:31:24.000Z</time>
      </trkpt>
      <trkpt lat="45.04864" lon="5.32926">
        <ele>249</ele>
        <time>2012-07-04T16:31:28.000Z</time>
      </trkpt>
      <trkpt lat="45.0486" lon="5.3291">
        <ele>248</ele>
        <time>2012-07-04T16:31:32.000Z</time>
      </trkpt>
      <trkpt lat="45.0486" lon="5.32902">
        <ele>245.60000610352</ele>
        <time>2012-07-04T16:31:34.000Z</time>
      </trkpt>
      <trkpt lat="45.04854" lon="5.32882">
        <ele>243.19999694824</ele>
        <time>2012-07-04T16:31:39.000Z</time>
      </trkpt>
      <trkpt lat="45.04836" lon="5.32873">
        <ele>241.39999389648</ele>
        <time>2012-07-04T16:31:45.000Z</time>
      </trkpt>
      <trkpt lat="45.04821" lon="5.3287">
        <ele>245.60000610352</ele>
        <time>2012-07-04T16:31:50.000Z</time>
      </trkpt>
      <trkpt lat="45.04803" lon="5.32868">
        <ele>247</ele>
        <time>2012-07-04T16:31:56.000Z</time>
      </trkpt>
      <trkpt lat="45.04791" lon="5.32859">
        <ele>245.19999694824</ele>
        <time>2012-07-04T16:32:01.000Z</time>
      </trkpt>
      <trkpt lat="45.04779" lon="5.32847">
        <ele>246.60000610352</ele>
        <time>2012-07-04T16:32:06.000Z</time>
      </trkpt>
      <trkpt lat="45.04771" lon="5.32837">
        <ele>249</ele>
        <time>2012-07-04T16:32:10.000Z</time>
      </trkpt>
      <trkpt lat="45.04761" lon="5.32825">
        <ele>253.39999389648</ele>
        <time>2012-07-04T16:32:15.000Z</time>
      </trkpt>
      <trkpt lat="45.04748" lon="5.32813">
        <ele>259.60000610352</ele>
        <time>2012-07-04T16:32:21.000Z</time>
      </trkpt>
      <trkpt lat="45.04737" lon="5.32809">
        <ele>260.60000610352</ele>
        <time>2012-07-04T16:32:26.000Z</time>
      </trkpt>
      <trkpt lat="45.04727" lon="5.32806">
        <ele>260</ele>
        <time>2012-07-04T16:32:31.000Z</time>
      </trkpt>
      <trkpt lat="45.04724" lon="5.32806">
        <ele>261</ele>
        <time>2012-07-04T16:32:32.000Z</time>
      </trkpt>
      <trkpt lat="45.04708" lon="5.32802">
        <ele>276</ele>
        <time>2012-07-04T16:32:39.000Z</time>
      </trkpt>
      <trkpt lat="45.04698" lon="5.32801">
        <ele>272.60000610352</ele>
        <time>2012-07-04T16:32:43.000Z</time>
      </trkpt>
      <trkpt lat="45.04685" lon="5.32802">
        <ele>270.60000610352</ele>
        <time>2012-07-04T16:32:47.000Z</time>
      </trkpt>
      <trkpt lat="45.04671" lon="5.32803">
        <ele>268.20001220703</ele>
        <time>2012-07-04T16:32:52.000Z</time>
      </trkpt>
      <trkpt lat="45.04657" lon="5.32805">
        <ele>266.79998779297</ele>
        <time>2012-07-04T16:32:57.000Z</time>
      </trkpt>
      <trkpt lat="45.04642" lon="5.32807">
        <ele>262.39999389648</ele>
        <time>2012-07-04T16:33:02.000Z</time>
      </trkpt>
      <trkpt lat="45.04631" lon="5.32809">
        <ele>260.60000610352</ele>
        <time>2012-07-04T16:33:06.000Z</time>
      </trkpt>
      <trkpt lat="45.04619" lon="5.32812">
        <ele>259.20001220703</ele>
        <time>2012-07-04T16:33:10.000Z</time>
      </trkpt>
      <trkpt lat="45.04606" lon="5.32814">
        <ele>258.60000610352</ele>
        <time>2012-07-04T16:33:14.000Z</time>
      </trkpt>
      <trkpt lat="45.04592" lon="5.32818">
        <ele>259.60000610352</ele>
        <time>2012-07-04T16:33:19.000Z</time>
      </trkpt>
      <trkpt lat="45.04577" lon="5.32824">
        <ele>258.20001220703</ele>
        <time>2012-07-04T16:33:24.000Z</time>
      </trkpt>
      <trkpt lat="45.04565" lon="5.32826">
        <ele>259.60000610352</ele>
        <time>2012-07-04T16:33:28.000Z</time>
      </trkpt>
      <trkpt lat="45.04554" lon="5.32829">
        <ele>259.60000610352</ele>
        <time>2012-07-04T16:33:32.000Z</time>
      </trkpt>
      <trkpt lat="45.04539" lon="5.32835">
        <ele>262</ele>
        <time>2012-07-04T16:33:37.000Z</time>
      </trkpt>
      <trkpt lat="45.04523" lon="5.32845">
        <ele>273.60000610352</ele>
        <time>2012-07-04T16:33:43.000Z</time>
      </trkpt>
      <trkpt lat="45.04517" lon="5.32849">
        <ele>276</ele>
        <time>2012-07-04T16:33:46.000Z</time>
      </trkpt>
      <trkpt lat="45.04511" lon="5.32837">
        <ele>272.60000610352</ele>
        <time>2012-07-04T16:33:51.000Z</time>
      </trkpt>
      <trkpt lat="45.04512" lon="5.32827">
        <ele>269.60000610352</ele>
        <time>2012-07-04T16:33:54.000Z</time>
      </trkpt>
      <trkpt lat="45.04509" lon="5.32808">
        <ele>269.60000610352</ele>
        <time>2012-07-04T16:33:59.000Z</time>
      </trkpt>
      <trkpt lat="45.04505" lon="5.32787">
        <ele>271.20001220703</ele>
        <time>2012-07-04T16:34:05.000Z</time>
      </trkpt>
      <trkpt lat="45.04503" lon="5.32774">
        <ele>270.60000610352</ele>
        <time>2012-07-04T16:34:09.000Z</time>
      </trkpt>
      <trkpt lat="45.04503" lon="5.3277">
        <ele>270.20001220703</ele>
        <time>2012-07-04T16:34:10.000Z</time>
      </trkpt>
      <trkpt lat="45.04497" lon="5.32758">
        <ele>270.60000610352</ele>
        <time>2012-07-04T16:34:15.000Z</time>
      </trkpt>
      <trkpt lat="45.04493" lon="5.32749">
        <ele>272.60000610352</ele>
        <time>2012-07-04T16:34:19.000Z</time>
      </trkpt>
      <trkpt lat="45.04484" lon="5.32736">
        <ele>275</ele>
        <time>2012-07-04T16:34:25.000Z</time>
      </trkpt>
      <trkpt lat="45.04477" lon="5.32726">
        <ele>275.39999389648</ele>
        <time>2012-07-04T16:34:30.000Z</time>
      </trkpt>
      <trkpt lat="45.04469" lon="5.32718">
        <ele>280.20001220703</ele>
        <time>2012-07-04T16:34:35.000Z</time>
      </trkpt>
      <trkpt lat="45.04463" lon="5.32714">
        <ele>283.60000610352</ele>
        <time>2012-07-04T16:34:38.000Z</time>
      </trkpt>
      <trkpt lat="45.0446" lon="5.32714">
        <ele>284.20001220703</ele>
        <time>2012-07-04T16:34:39.000Z</time>
      </trkpt>
      <trkpt lat="45.04446" lon="5.32707">
        <ele>291.79998779297</ele>
        <time>2012-07-04T16:34:45.000Z</time>
      </trkpt>
      <trkpt lat="45.04434" lon="5.32698">
        <ele>294.20001220703</ele>
        <time>2012-07-04T16:34:52.000Z</time>
      </trkpt>
      <trkpt lat="45.04424" lon="5.32692">
        <ele>298</ele>
        <time>2012-07-04T16:34:57.000Z</time>
      </trkpt>
      <trkpt lat="45.04417" lon="5.32683">
        <ele>294.20001220703</ele>
        <time>2012-07-04T16:35:01.000Z</time>
      </trkpt>
      <trkpt lat="45.04414" lon="5.32679">
        <ele>292.20001220703</ele>
        <time>2012-07-04T16:35:03.000Z</time>
      </trkpt>
      <trkpt lat="45.04402" lon="5.32666">
        <ele>289.39999389648</ele>
        <time>2012-07-04T16:35:09.000Z</time>
      </trkpt>
      <trkpt lat="45.04391" lon="5.32658">
        <ele>289.39999389648</ele>
        <time>2012-07-04T16:35:14.000Z</time>
      </trkpt>
      <trkpt lat="45.0438" lon="5.32651">
        <ele>280.20001220703</ele>
        <time>2012-07-04T16:35:19.000Z</time>
      </trkpt>
      <trkpt lat="45.0437" lon="5.32647">
        <ele>276.79998779297</ele>
        <time>2012-07-04T16:35:23.000Z</time>
      </trkpt>
      <trkpt lat="45.04362" lon="5.32643">
        <ele>276.39999389648</ele>
        <time>2012-07-04T16:35:27.000Z</time>
      </trkpt>
      <trkpt lat="45.0435" lon="5.32635">
        <ele>275.39999389648</ele>
        <time>2012-07-04T16:35:33.000Z</time>
      </trkpt>
      <trkpt lat="45.0434" lon="5.3263">
        <ele>276</ele>
        <time>2012-07-04T16:35:37.000Z</time>
      </trkpt>
      <trkpt lat="45.0433" lon="5.32623">
        <ele>279.39999389648</ele>
        <time>2012-07-04T16:35:42.000Z</time>
      </trkpt>
      <trkpt lat="45.04319" lon="5.32618">
        <ele>280.20001220703</ele>
        <time>2012-07-04T16:35:46.000Z</time>
      </trkpt>
      <trkpt lat="45.04303" lon="5.32606">
        <ele>281.20001220703</ele>
        <time>2012-07-04T16:35:52.000Z</time>
      </trkpt>
      <trkpt lat="45.04288" lon="5.32589">
        <ele>280.79998779297</ele>
        <time>2012-07-04T16:35:58.000Z</time>
      </trkpt>
      <trkpt lat="45.04279" lon="5.32579">
        <ele>279.79998779297</ele>
        <time>2012-07-04T16:36:02.000Z</time>
      </trkpt>
      <trkpt lat="45.04269" lon="5.32566">
        <ele>279.79998779297</ele>
        <time>2012-07-04T16:36:06.000Z</time>
      </trkpt>
      <trkpt lat="45.04259" lon="5.32545">
        <ele>278.79998779297</ele>
        <time>2012-07-04T16:36:11.000Z</time>
      </trkpt>
      <trkpt lat="45.0425" lon="5.32529">
        <ele>279.39999389648</ele>
        <time>2012-07-04T16:36:15.000Z</time>
      </trkpt>
      <trkpt lat="45.04238" lon="5.32515">
        <ele>278.79998779297</ele>
        <time>2012-07-04T16:36:20.000Z</time>
      </trkpt>
      <trkpt lat="45.0423" lon="5.32503">
        <ele>280.20001220703</ele>
        <time>2012-07-04T16:36:24.000Z</time>
      </trkpt>
      <trkpt lat="45.04223" lon="5.32486">
        <ele>281.79998779297</ele>
        <time>2012-07-04T16:36:30.000Z</time>
      </trkpt>
      <trkpt lat="45.04215" lon="5.3247">
        <ele>284.20001220703</ele>
        <time>2012-07-04T16:36:36.000Z</time>
      </trkpt>
      <trkpt lat="45.04206" lon="5.32466">
        <ele>287</ele>
        <time>2012-07-04T16:36:40.000Z</time>
      </trkpt>
      <trkpt lat="45.042" lon="5.32461">
        <ele>285</ele>
        <time>2012-07-04T16:36:44.000Z</time>
      </trkpt>
      <trkpt lat="45.04195" lon="5.32456">
        <ele>287.39999389648</ele>
        <time>2012-07-04T16:36:47.000Z</time>
      </trkpt>
      <trkpt lat="45.04187" lon="5.32438">
        <ele>289</ele>
        <time>2012-07-04T16:36:53.000Z</time>
      </trkpt>
      <trkpt lat="45.04179" lon="5.32428">
        <ele>293.79998779297</ele>
        <time>2012-07-04T16:36:57.000Z</time>
      </trkpt>
      <trkpt lat="45.04169" lon="5.32408">
        <ele>290.79998779297</ele>
        <time>2012-07-04T16:37:03.000Z</time>
      </trkpt>
      <trkpt lat="45.04162" lon="5.32395">
        <ele>292.79998779297</ele>
        <time>2012-07-04T16:37:08.000Z</time>
      </trkpt>
      <trkpt lat="45.04155" lon="5.32383">
        <ele>292.79998779297</ele>
        <time>2012-07-04T16:37:12.000Z</time>
      </trkpt>
      <trkpt lat="45.04148" lon="5.3237">
        <ele>291.79998779297</ele>
        <time>2012-07-04T16:37:16.000Z</time>
      </trkpt>
      <trkpt lat="45.04138" lon="5.32353">
        <ele>289.79998779297</ele>
        <time>2012-07-04T16:37:21.000Z</time>
      </trkpt>
      <trkpt lat="45.04131" lon="5.32339">
        <ele>289.79998779297</ele>
        <time>2012-07-04T16:37:25.000Z</time>
      </trkpt>
      <trkpt lat="45.04125" lon="5.32328">
        <ele>291.39999389648</ele>
        <time>2012-07-04T16:37:29.000Z</time>
      </trkpt>
      <trkpt lat="45.04117" lon="5.3232">
        <ele>294.60000610352</ele>
        <time>2012-07-04T16:37:33.000Z</time>
      </trkpt>
      <trkpt lat="45.04108" lon="5.3231">
        <ele>298</ele>
        <time>2012-07-04T16:37:38.000Z</time>
      </trkpt>
      <trkpt lat="45.04091" lon="5.32302">
        <ele>302.39999389648</ele>
        <time>2012-07-04T16:37:44.000Z</time>
      </trkpt>
      <trkpt lat="45.04074" lon="5.32295">
        <ele>299</ele>
        <time>2012-07-04T16:37:50.000Z</time>
      </trkpt>
      <trkpt lat="45.04061" lon="5.32291">
        <ele>301.39999389648</ele>
        <time>2012-07-04T16:37:54.000Z</time>
      </trkpt>
      <trkpt lat="45.04045" lon="5.32287">
        <ele>302.39999389648</ele>
        <time>2012-07-04T16:37:59.000Z</time>
      </trkpt>
      <trkpt lat="45.04024" lon="5.32286">
        <ele>314.39999389648</ele>
        <time>2012-07-04T16:38:05.000Z</time>
      </trkpt>
      <trkpt lat="45.04008" lon="5.3228">
        <ele>320.20001220703</ele>
        <time>2012-07-04T16:38:10.000Z</time>
      </trkpt>
      <trkpt lat="45.03997" lon="5.32267">
        <ele>314</ele>
        <time>2012-07-04T16:38:15.000Z</time>
      </trkpt>
      <trkpt lat="45.03985" lon="5.32254">
        <ele>306.60000610352</ele>
        <time>2012-07-04T16:38:20.000Z</time>
      </trkpt>
      <trkpt lat="45.0397" lon="5.3224">
        <ele>302.79998779297</ele>
        <time>2012-07-04T16:38:26.000Z</time>
      </trkpt>
      <trkpt lat="45.03961" lon="5.32231">
        <ele>299</ele>
        <time>2012-07-04T16:38:30.000Z</time>
      </trkpt>
      <trkpt lat="45.03948" lon="5.3222">
        <ele>295.20001220703</ele>
        <time>2012-07-04T16:38:35.000Z</time>
      </trkpt>
      <trkpt lat="45.03937" lon="5.32207">
        <ele>290.39999389648</ele>
        <time>2012-07-04T16:38:40.000Z</time>
      </trkpt>
      <trkpt lat="45.03926" lon="5.32196">
        <ele>290.79998779297</ele>
        <time>2012-07-04T16:38:45.000Z</time>
      </trkpt>
      <trkpt lat="45.03914" lon="5.32185">
        <ele>289.79998779297</ele>
        <time>2012-07-04T16:38:50.000Z</time>
      </trkpt>
      <trkpt lat="45.03905" lon="5.32176">
        <ele>293.20001220703</ele>
        <time>2012-07-04T16:38:54.000Z</time>
      </trkpt>
      <trkpt lat="45.03894" lon="5.32164">
        <ele>295.20001220703</ele>
        <time>2012-07-04T16:38:59.000Z</time>
      </trkpt>
      <trkpt lat="45.03882" lon="5.32153">
        <ele>295.20001220703</ele>
        <time>2012-07-04T16:39:04.000Z</time>
      </trkpt>
      <trkpt lat="45.03871" lon="5.32144">
        <ele>296.60000610352</ele>
        <time>2012-07-04T16:39:08.000Z</time>
      </trkpt>
      <trkpt lat="45.03861" lon="5.32136">
        <ele>299</ele>
        <time>2012-07-04T16:39:12.000Z</time>
      </trkpt>
      <trkpt lat="45.03853" lon="5.32127">
        <ele>298.60000610352</ele>
        <time>2012-07-04T16:39:16.000Z</time>
      </trkpt>
      <trkpt lat="45.0384" lon="5.32115">
        <ele>297</ele>
        <time>2012-07-04T16:39:21.000Z</time>
      </trkpt>
      <trkpt lat="45.03831" lon="5.32104">
        <ele>295.60000610352</ele>
        <time>2012-07-04T16:39:25.000Z</time>
      </trkpt>
      <trkpt lat="45.03819" lon="5.32092">
        <ele>296.60000610352</ele>
        <time>2012-07-04T16:39:30.000Z</time>
      </trkpt>
      <trkpt lat="45.03807" lon="5.32079">
        <ele>297.60000610352</ele>
        <time>2012-07-04T16:39:35.000Z</time>
      </trkpt>
      <trkpt lat="45.03793" lon="5.32064">
        <ele>294.60000610352</ele>
        <time>2012-07-04T16:39:41.000Z</time>
      </trkpt>
      <trkpt lat="45.0378" lon="5.32052">
        <ele>292.79998779297</ele>
        <time>2012-07-04T16:39:46.000Z</time>
      </trkpt>
      <trkpt lat="45.03771" lon="5.32042">
        <ele>290.79998779297</ele>
        <time>2012-07-04T16:39:50.000Z</time>
      </trkpt>
      <trkpt lat="45.03758" lon="5.32031">
        <ele>289.39999389648</ele>
        <time>2012-07-04T16:39:55.000Z</time>
      </trkpt>
      <trkpt lat="45.03748" lon="5.32023">
        <ele>289.79998779297</ele>
        <time>2012-07-04T16:39:59.000Z</time>
      </trkpt>
      <trkpt lat="45.03745" lon="5.3202">
        <ele>289.39999389648</ele>
        <time>2012-07-04T16:40:00.000Z</time>
      </trkpt>
      <trkpt lat="45.03734" lon="5.32008">
        <ele>291.39999389648</ele>
        <time>2012-07-04T16:40:05.000Z</time>
      </trkpt>
      <trkpt lat="45.03731" lon="5.32006">
        <ele>291.79998779297</ele>
        <time>2012-07-04T16:40:06.000Z</time>
      </trkpt>
      <trkpt lat="45.03719" lon="5.31996">
        <ele>294.60000610352</ele>
        <time>2012-07-04T16:40:11.000Z</time>
      </trkpt>
      <trkpt lat="45.03704" lon="5.31988">
        <ele>297.60000610352</ele>
        <time>2012-07-04T16:40:16.000Z</time>
      </trkpt>
      <trkpt lat="45.03692" lon="5.31979">
        <ele>300</ele>
        <time>2012-07-04T16:40:21.000Z</time>
      </trkpt>
      <trkpt lat="45.03679" lon="5.31972">
        <ele>303.79998779297</ele>
        <time>2012-07-04T16:40:26.000Z</time>
      </trkpt>
      <trkpt lat="45.03667" lon="5.31964">
        <ele>307.20001220703</ele>
        <time>2012-07-04T16:40:31.000Z</time>
      </trkpt>
      <trkpt lat="45.03655" lon="5.31961">
        <ele>307.60000610352</ele>
        <time>2012-07-04T16:40:36.000Z</time>
      </trkpt>
      <trkpt lat="45.03653" lon="5.3196">
        <ele>308.60000610352</ele>
        <time>2012-07-04T16:40:37.000Z</time>
      </trkpt>
      <trkpt lat="45.03639" lon="5.31957">
        <ele>308.20001220703</ele>
        <time>2012-07-04T16:40:42.000Z</time>
      </trkpt>
      <trkpt lat="45.03628" lon="5.31955">
        <ele>309.20001220703</ele>
        <time>2012-07-04T16:40:46.000Z</time>
      </trkpt>
      <trkpt lat="45.03615" lon="5.31953">
        <ele>310.60000610352</ele>
        <time>2012-07-04T16:40:51.000Z</time>
      </trkpt>
      <trkpt lat="45.03601" lon="5.31951">
        <ele>312</ele>
        <time>2012-07-04T16:40:56.000Z</time>
      </trkpt>
      <trkpt lat="45.03595" lon="5.31949">
        <ele>314.79998779297</ele>
        <time>2012-07-04T16:40:59.000Z</time>
      </trkpt>
      <trkpt lat="45.0358" lon="5.31944">
        <ele>316.39999389648</ele>
        <time>2012-07-04T16:41:05.000Z</time>
      </trkpt>
      <trkpt lat="45.03563" lon="5.31937">
        <ele>316.39999389648</ele>
        <time>2012-07-04T16:41:11.000Z</time>
      </trkpt>
      <trkpt lat="45.03557" lon="5.31935">
        <ele>314</ele>
        <time>2012-07-04T16:41:13.000Z</time>
      </trkpt>
      <trkpt lat="45.03546" lon="5.31923">
        <ele>310.60000610352</ele>
        <time>2012-07-04T16:41:18.000Z</time>
      </trkpt>
      <trkpt lat="45.03537" lon="5.31908">
        <ele>306.20001220703</ele>
        <time>2012-07-04T16:41:24.000Z</time>
      </trkpt>
      <trkpt lat="45.03527" lon="5.319">
        <ele>302.79998779297</ele>
        <time>2012-07-04T16:41:28.000Z</time>
      </trkpt>
      <trkpt lat="45.03509" lon="5.31896">
        <ele>299</ele>
        <time>2012-07-04T16:41:34.000Z</time>
      </trkpt>
      <trkpt lat="45.03493" lon="5.31897">
        <ele>299.39999389648</ele>
        <time>2012-07-04T16:41:39.000Z</time>
      </trkpt>
      <trkpt lat="45.03482" lon="5.31896">
        <ele>300</ele>
        <time>2012-07-04T16:41:43.000Z</time>
      </trkpt>
      <trkpt lat="45.0347" lon="5.31897">
        <ele>299.39999389648</ele>
        <time>2012-07-04T16:41:47.000Z</time>
      </trkpt>
      <trkpt lat="45.03455" lon="5.31905">
        <ele>300</ele>
        <time>2012-07-04T16:41:52.000Z</time>
      </trkpt>
      <trkpt lat="45.03447" lon="5.31919">
        <ele>302.39999389648</ele>
        <time>2012-07-04T16:41:56.000Z</time>
      </trkpt>
      <trkpt lat="45.03445" lon="5.31929">
        <ele>302.39999389648</ele>
        <time>2012-07-04T16:41:58.000Z</time>
      </trkpt>
      <trkpt lat="45.03444" lon="5.31958">
        <ele>301.79998779297</ele>
        <time>2012-07-04T16:42:04.000Z</time>
      </trkpt>
      <trkpt lat="45.03442" lon="5.31984">
        <ele>301</ele>
        <time>2012-07-04T16:42:10.000Z</time>
      </trkpt>
      <trkpt lat="45.03436" lon="5.32006">
        <ele>301.79998779297</ele>
        <time>2012-07-04T16:42:15.000Z</time>
      </trkpt>
      <trkpt lat="45.03429" lon="5.32016">
        <ele>302.79998779297</ele>
        <time>2012-07-04T16:42:18.000Z</time>
      </trkpt>
      <trkpt lat="45.03425" lon="5.32021">
        <ele>304.79998779297</ele>
        <time>2012-07-04T16:42:20.000Z</time>
      </trkpt>
      <trkpt lat="45.03409" lon="5.32034">
        <ele>306.60000610352</ele>
        <time>2012-07-04T16:42:26.000Z</time>
      </trkpt>
      <trkpt lat="45.03396" lon="5.32044">
        <ele>308.60000610352</ele>
        <time>2012-07-04T16:42:31.000Z</time>
      </trkpt>
      <trkpt lat="45.03382" lon="5.32055">
        <ele>306.60000610352</ele>
        <time>2012-07-04T16:42:36.000Z</time>
      </trkpt>
      <trkpt lat="45.03369" lon="5.32066">
        <ele>307.60000610352</ele>
        <time>2012-07-04T16:42:41.000Z</time>
      </trkpt>
      <trkpt lat="45.03354" lon="5.32078">
        <ele>308.20001220703</ele>
        <time>2012-07-04T16:42:47.000Z</time>
      </trkpt>
      <trkpt lat="45.03341" lon="5.32089">
        <ele>309.20001220703</ele>
        <time>2012-07-04T16:42:52.000Z</time>
      </trkpt>
      <trkpt lat="45.03331" lon="5.32097">
        <ele>309.60000610352</ele>
        <time>2012-07-04T16:42:56.000Z</time>
      </trkpt>
      <trkpt lat="45.03319" lon="5.32109">
        <ele>311</ele>
        <time>2012-07-04T16:43:01.000Z</time>
      </trkpt>
      <trkpt lat="45.03306" lon="5.3212">
        <ele>312</ele>
        <time>2012-07-04T16:43:06.000Z</time>
      </trkpt>
      <trkpt lat="45.03289" lon="5.32132">
        <ele>310</ele>
        <time>2012-07-04T16:43:12.000Z</time>
      </trkpt>
      <trkpt lat="45.03276" lon="5.32141">
        <ele>309.20001220703</ele>
        <time>2012-07-04T16:43:17.000Z</time>
      </trkpt>
      <trkpt lat="45.03262" lon="5.32151">
        <ele>306.60000610352</ele>
        <time>2012-07-04T16:43:22.000Z</time>
      </trkpt>
      <trkpt lat="45.03247" lon="5.32164">
        <ele>304.20001220703</ele>
        <time>2012-07-04T16:43:28.000Z</time>
      </trkpt>
      <trkpt lat="45.03232" lon="5.32174">
        <ele>303.79998779297</ele>
        <time>2012-07-04T16:43:34.000Z</time>
      </trkpt>
      <trkpt lat="45.03223" lon="5.32182">
        <ele>304.20001220703</ele>
        <time>2012-07-04T16:43:38.000Z</time>
      </trkpt>
      <trkpt lat="45.03213" lon="5.3219">
        <ele>303.79998779297</ele>
        <time>2012-07-04T16:43:42.000Z</time>
      </trkpt>
      <trkpt lat="45.03202" lon="5.322">
        <ele>303.79998779297</ele>
        <time>2012-07-04T16:43:47.000Z</time>
      </trkpt>
      <trkpt lat="45.03189" lon="5.32209">
        <ele>303.79998779297</ele>
        <time>2012-07-04T16:43:52.000Z</time>
      </trkpt>
      <trkpt lat="45.03178" lon="5.3222">
        <ele>304.79998779297</ele>
        <time>2012-07-04T16:43:57.000Z</time>
      </trkpt>
      <trkpt lat="45.03168" lon="5.32227">
        <ele>305.20001220703</ele>
        <time>2012-07-04T16:44:01.000Z</time>
      </trkpt>
      <trkpt lat="45.03153" lon="5.3224">
        <ele>305.79998779297</ele>
        <time>2012-07-04T16:44:07.000Z</time>
      </trkpt>
      <trkpt lat="45.0314" lon="5.32251">
        <ele>307.60000610352</ele>
        <time>2012-07-04T16:44:12.000Z</time>
      </trkpt>
      <trkpt lat="45.03125" lon="5.32265">
        <ele>311</ele>
        <time>2012-07-04T16:44:18.000Z</time>
      </trkpt>
      <trkpt lat="45.03113" lon="5.32275">
        <ele>313.39999389648</ele>
        <time>2012-07-04T16:44:23.000Z</time>
      </trkpt>
      <trkpt lat="45.03099" lon="5.32285">
        <ele>314.79998779297</ele>
        <time>2012-07-04T16:44:28.000Z</time>
      </trkpt>
      <trkpt lat="45.03086" lon="5.32294">
        <ele>316.79998779297</ele>
        <time>2012-07-04T16:44:33.000Z</time>
      </trkpt>
      <trkpt lat="45.03074" lon="5.32304">
        <ele>317.79998779297</ele>
        <time>2012-07-04T16:44:38.000Z</time>
      </trkpt>
      <trkpt lat="45.03055" lon="5.32318">
        <ele>317.20001220703</ele>
        <time>2012-07-04T16:44:45.000Z</time>
      </trkpt>
      <trkpt lat="45.03046" lon="5.32326">
        <ele>316.39999389648</ele>
        <time>2012-07-04T16:44:49.000Z</time>
      </trkpt>
      <trkpt lat="45.03035" lon="5.32336">
        <ele>316.39999389648</ele>
        <time>2012-07-04T16:44:54.000Z</time>
      </trkpt>
      <trkpt lat="45.0303" lon="5.3234">
        <ele>315.39999389648</ele>
        <time>2012-07-04T16:44:59.000Z</time>
      </trkpt>
      <trkpt lat="45.0302" lon="5.32348">
        <ele>314.39999389648</ele>
        <time>2012-07-04T16:45:07.000Z</time>
      </trkpt>
      <trkpt lat="45.03007" lon="5.32358">
        <ele>314</ele>
        <time>2012-07-04T16:45:12.000Z</time>
      </trkpt>
      <trkpt lat="45.02996" lon="5.32367">
        <ele>314.79998779297</ele>
        <time>2012-07-04T16:45:16.000Z</time>
      </trkpt>
      <trkpt lat="45.02976" lon="5.32381">
        <ele>314.79998779297</ele>
        <time>2012-07-04T16:45:23.000Z</time>
      </trkpt>
      <trkpt lat="45.02962" lon="5.3239">
        <ele>314.39999389648</ele>
        <time>2012-07-04T16:45:28.000Z</time>
      </trkpt>
      <trkpt lat="45.0295" lon="5.32398">
        <ele>314</ele>
        <time>2012-07-04T16:45:33.000Z</time>
      </trkpt>
      <trkpt lat="45.02937" lon="5.32407">
        <ele>313.39999389648</ele>
        <time>2012-07-04T16:45:38.000Z</time>
      </trkpt>
      <trkpt lat="45.02922" lon="5.32421">
        <ele>313</ele>
        <time>2012-07-04T16:45:44.000Z</time>
      </trkpt>
      <trkpt lat="45.02908" lon="5.32435">
        <ele>314.39999389648</ele>
        <time>2012-07-04T16:45:50.000Z</time>
      </trkpt>
      <trkpt lat="45.02895" lon="5.32446">
        <ele>314.79998779297</ele>
        <time>2012-07-04T16:45:55.000Z</time>
      </trkpt>
      <trkpt lat="45.02886" lon="5.32455">
        <ele>315.39999389648</ele>
        <time>2012-07-04T16:45:59.000Z</time>
      </trkpt>
      <trkpt lat="45.02871" lon="5.32475">
        <ele>315.39999389648</ele>
        <time>2012-07-04T16:46:06.000Z</time>
      </trkpt>
      <trkpt lat="45.02861" lon="5.3249">
        <ele>315.79998779297</ele>
        <time>2012-07-04T16:46:11.000Z</time>
      </trkpt>
      <trkpt lat="45.02851" lon="5.32504">
        <ele>315.79998779297</ele>
        <time>2012-07-04T16:46:16.000Z</time>
      </trkpt>
      <trkpt lat="45.02842" lon="5.32518">
        <ele>315.39999389648</ele>
        <time>2012-07-04T16:46:20.000Z</time>
      </trkpt>
      <trkpt lat="45.02831" lon="5.32536">
        <ele>314</ele>
        <time>2012-07-04T16:46:25.000Z</time>
      </trkpt>
      <trkpt lat="45.02819" lon="5.32554">
        <ele>313.39999389648</ele>
        <time>2012-07-04T16:46:31.000Z</time>
      </trkpt>
      <trkpt lat="45.02814" lon="5.32565">
        <ele>314</ele>
        <time>2012-07-04T16:46:34.000Z</time>
      </trkpt>
      <trkpt lat="45.02804" lon="5.32574">
        <ele>313</ele>
        <time>2012-07-04T16:46:38.000Z</time>
      </trkpt>
      <trkpt lat="45.02792" lon="5.32599">
        <ele>313</ele>
        <time>2012-07-04T16:46:45.000Z</time>
      </trkpt>
      <trkpt lat="45.02783" lon="5.3261">
        <ele>313</ele>
        <time>2012-07-04T16:46:49.000Z</time>
      </trkpt>
      <trkpt lat="45.0278" lon="5.32616">
        <ele>312.39999389648</ele>
        <time>2012-07-04T16:46:51.000Z</time>
      </trkpt>
      <trkpt lat="45.02773" lon="5.32632">
        <ele>312</ele>
        <time>2012-07-04T16:46:56.000Z</time>
      </trkpt>
      <trkpt lat="45.02772" lon="5.32635">
        <ele>312</ele>
        <time>2012-07-04T16:46:57.000Z</time>
      </trkpt>
      <trkpt lat="45.02766" lon="5.32649">
        <ele>312.39999389648</ele>
        <time>2012-07-04T16:47:02.000Z</time>
      </trkpt>
      <trkpt lat="45.02767" lon="5.32668">
        <ele>312</ele>
        <time>2012-07-04T16:47:07.000Z</time>
      </trkpt>
      <trkpt lat="45.02767" lon="5.32675">
        <ele>312</ele>
        <time>2012-07-04T16:47:09.000Z</time>
      </trkpt>
      <trkpt lat="45.02768" lon="5.32688">
        <ele>316.79998779297</ele>
        <time>2012-07-04T16:47:16.000Z</time>
      </trkpt>
      <trkpt lat="45.02767" lon="5.32694">
        <ele>317.20001220703</ele>
        <time>2012-07-04T16:47:20.000Z</time>
      </trkpt>
      <trkpt lat="45.02749" lon="5.32781">
        <ele>316.39999389648</ele>
        <time>2012-07-04T16:48:28.000Z</time>
      </trkpt>
      <trkpt lat="45.02748" lon="5.32782">
        <ele>316.39999389648</ele>
        <time>2012-07-04T16:48:29.000Z</time>
      </trkpt>
      <trkpt lat="45.02747" lon="5.32785">
        <ele>316.39999389648</ele>
        <time>2012-07-04T16:48:32.000Z</time>
      </trkpt>
      <trkpt lat="45.02747" lon="5.32786">
        <ele>316.39999389648</ele>
        <time>2012-07-04T16:48:35.000Z</time>
      </trkpt>
      <trkpt lat="45.02746" lon="5.3279">
        <ele>316.79998779297</ele>
        <time>2012-07-04T16:48:36.000Z</time>
      </trkpt>
      <trkpt lat="45.02746" lon="5.32791">
        <ele>316.79998779297</ele>
        <time>2012-07-04T16:48:37.000Z</time>
      </trkpt>
      <trkpt lat="45.02746" lon="5.32791">
        <ele>316.79998779297</ele>
        <time>2012-07-04T16:48:37.000Z</time>
      </trkpt>
      <trkpt lat="45.02745" lon="5.32799">
        <ele>321.20001220703</ele>
        <time>2012-07-04T16:48:43.000Z</time>
      </trkpt>
      <trkpt lat="45.02744" lon="5.32802">
        <ele>322</ele>
        <time>2012-07-04T16:48:45.000Z</time>
      </trkpt>
      <trkpt lat="45.02738" lon="5.32823">
        <ele>321.60000610352</ele>
        <time>2012-07-04T16:48:50.000Z</time>
      </trkpt>
      <trkpt lat="45.0273" lon="5.32848">
        <ele>322</ele>
        <time>2012-07-04T16:48:55.000Z</time>
      </trkpt>
      <trkpt lat="45.02722" lon="5.32875">
        <ele>324</ele>
        <time>2012-07-04T16:49:01.000Z</time>
      </trkpt>
      <trkpt lat="45.02713" lon="5.32894">
        <ele>326.79998779297</ele>
        <time>2012-07-04T16:49:06.000Z</time>
      </trkpt>
      <trkpt lat="45.02705" lon="5.3292">
        <ele>328.79998779297</ele>
        <time>2012-07-04T16:49:12.000Z</time>
      </trkpt>
      <trkpt lat="45.02699" lon="5.3294">
        <ele>328.79998779297</ele>
        <time>2012-07-04T16:49:17.000Z</time>
      </trkpt>
      <trkpt lat="45.02691" lon="5.32967">
        <ele>327.79998779297</ele>
        <time>2012-07-04T16:49:24.000Z</time>
      </trkpt>
      <trkpt lat="45.02687" lon="5.32983">
        <ele>327.39999389648</ele>
        <time>2012-07-04T16:49:28.000Z</time>
      </trkpt>
      <trkpt lat="45.02679" lon="5.33006">
        <ele>328.79998779297</ele>
        <time>2012-07-04T16:49:34.000Z</time>
      </trkpt>
      <trkpt lat="45.02674" lon="5.33024">
        <ele>329.79998779297</ele>
        <time>2012-07-04T16:49:39.000Z</time>
      </trkpt>
      <trkpt lat="45.02671" lon="5.33039">
        <ele>330.79998779297</ele>
        <time>2012-07-04T16:49:43.000Z</time>
      </trkpt>
      <trkpt lat="45.0267" lon="5.33047">
        <ele>331.20001220703</ele>
        <time>2012-07-04T16:49:45.000Z</time>
      </trkpt>
      <trkpt lat="45.02663" lon="5.33068">
        <ele>333.20001220703</ele>
        <time>2012-07-04T16:49:51.000Z</time>
      </trkpt>
      <trkpt lat="45.02661" lon="5.33076">
        <ele>333.60000610352</ele>
        <time>2012-07-04T16:49:53.000Z</time>
      </trkpt>
      <trkpt lat="45.02656" lon="5.33089">
        <ele>335</ele>
        <time>2012-07-04T16:49:57.000Z</time>
      </trkpt>
      <trkpt lat="45.02647" lon="5.33115">
        <ele>338.39999389648</ele>
        <time>2012-07-04T16:50:04.000Z</time>
      </trkpt>
      <trkpt lat="45.02646" lon="5.33118">
        <ele>339.39999389648</ele>
        <time>2012-07-04T16:50:05.000Z</time>
      </trkpt>
      <trkpt lat="45.02635" lon="5.33135">
        <ele>341.39999389648</ele>
        <time>2012-07-04T16:50:11.000Z</time>
      </trkpt>
      <trkpt lat="45.02626" lon="5.3315">
        <ele>343.79998779297</ele>
        <time>2012-07-04T16:50:16.000Z</time>
      </trkpt>
      <trkpt lat="45.02625" lon="5.33153">
        <ele>344.20001220703</ele>
        <time>2012-07-04T16:50:17.000Z</time>
      </trkpt>
      <trkpt lat="45.02616" lon="5.33171">
        <ele>345.20001220703</ele>
        <time>2012-07-04T16:50:23.000Z</time>
      </trkpt>
      <trkpt lat="45.02607" lon="5.33185">
        <ele>347.60000610352</ele>
        <time>2012-07-04T16:50:28.000Z</time>
      </trkpt>
      <trkpt lat="45.02603" lon="5.3319">
        <ele>348</ele>
        <time>2012-07-04T16:50:30.000Z</time>
      </trkpt>
      <trkpt lat="45.02598" lon="5.33208">
        <ele>349</ele>
        <time>2012-07-04T16:50:36.000Z</time>
      </trkpt>
      <trkpt lat="45.02597" lon="5.33222">
        <ele>351</ele>
        <time>2012-07-04T16:50:41.000Z</time>
      </trkpt>
      <trkpt lat="45.02594" lon="5.33238">
        <ele>352.39999389648</ele>
        <time>2012-07-04T16:50:47.000Z</time>
      </trkpt>
      <trkpt lat="45.02593" lon="5.33241">
        <ele>352.79998779297</ele>
        <time>2012-07-04T16:50:48.000Z</time>
      </trkpt>
      <trkpt lat="45.02591" lon="5.33258">
        <ele>354.79998779297</ele>
        <time>2012-07-04T16:50:53.000Z</time>
      </trkpt>
      <trkpt lat="45.02587" lon="5.33269">
        <ele>354.79998779297</ele>
        <time>2012-07-04T16:50:57.000Z</time>
      </trkpt>
      <trkpt lat="45.02586" lon="5.33272">
        <ele>355.20001220703</ele>
        <time>2012-07-04T16:50:58.000Z</time>
      </trkpt>
      <trkpt lat="45.02582" lon="5.33282">
        <ele>357.20001220703</ele>
        <time>2012-07-04T16:51:02.000Z</time>
      </trkpt>
      <trkpt lat="45.02575" lon="5.33297">
        <ele>357.20001220703</ele>
        <time>2012-07-04T16:51:08.000Z</time>
      </trkpt>
      <trkpt lat="45.02571" lon="5.33305">
        <ele>357.60000610352</ele>
        <time>2012-07-04T16:51:12.000Z</time>
      </trkpt>
      <trkpt lat="45.02566" lon="5.33317">
        <ele>360</ele>
        <time>2012-07-04T16:51:17.000Z</time>
      </trkpt>
      <trkpt lat="45.02558" lon="5.33332">
        <ele>363</ele>
        <time>2012-07-04T16:51:23.000Z</time>
      </trkpt>
      <trkpt lat="45.02551" lon="5.33344">
        <ele>364.39999389648</ele>
        <time>2012-07-04T16:51:28.000Z</time>
      </trkpt>
      <trkpt lat="45.02547" lon="5.33356">
        <ele>365.79998779297</ele>
        <time>2012-07-04T16:51:33.000Z</time>
      </trkpt>
      <trkpt lat="45.02543" lon="5.33366">
        <ele>366.79998779297</ele>
        <time>2012-07-04T16:51:37.000Z</time>
      </trkpt>
      <trkpt lat="45.02542" lon="5.33373">
        <ele>368.20001220703</ele>
        <time>2012-07-04T16:51:40.000Z</time>
      </trkpt>
      <trkpt lat="45.02539" lon="5.33385">
        <ele>372</ele>
        <time>2012-07-04T16:51:45.000Z</time>
      </trkpt>
      <trkpt lat="45.02539" lon="5.33388">
        <ele>372.60000610352</ele>
        <time>2012-07-04T16:51:46.000Z</time>
      </trkpt>
      <trkpt lat="45.0254" lon="5.33403">
        <ele>373.60000610352</ele>
        <time>2012-07-04T16:51:51.000Z</time>
      </trkpt>
      <trkpt lat="45.02535" lon="5.3342">
        <ele>374.39999389648</ele>
        <time>2012-07-04T16:51:59.000Z</time>
      </trkpt>
      <trkpt lat="45.02535" lon="5.33426">
        <ele>374.39999389648</ele>
        <time>2012-07-04T16:52:01.000Z</time>
      </trkpt>
      <trkpt lat="45.02534" lon="5.3344">
        <ele>376</ele>
        <time>2012-07-04T16:52:07.000Z</time>
      </trkpt>
      <trkpt lat="45.02533" lon="5.33451">
        <ele>376</ele>
        <time>2012-07-04T16:52:12.000Z</time>
      </trkpt>
      <trkpt lat="45.02533" lon="5.33453">
        <ele>376.39999389648</ele>
        <time>2012-07-04T16:52:13.000Z</time>
      </trkpt>
      <trkpt lat="45.02524" lon="5.33456">
        <ele>379.79998779297</ele>
        <time>2012-07-04T16:52:19.000Z</time>
      </trkpt>
      <trkpt lat="45.02526" lon="5.33459">
        <ele>380.20001220703</ele>
        <time>2012-07-04T16:52:21.000Z</time>
      </trkpt>
      <trkpt lat="45.02532" lon="5.33464">
        <ele>380.79998779297</ele>
        <time>2012-07-04T16:52:24.000Z</time>
      </trkpt>
      <trkpt lat="45.02531" lon="5.33474">
        <ele>378.79998779297</ele>
        <time>2012-07-04T16:52:29.000Z</time>
      </trkpt>
      <trkpt lat="45.0253" lon="5.33484">
        <ele>378.39999389648</ele>
        <time>2012-07-04T16:52:33.000Z</time>
      </trkpt>
      <trkpt lat="45.02529" lon="5.33498">
        <ele>378.79998779297</ele>
        <time>2012-07-04T16:52:39.000Z</time>
      </trkpt>
      <trkpt lat="45.02529" lon="5.33506">
        <ele>379.20001220703</ele>
        <time>2012-07-04T16:52:42.000Z</time>
      </trkpt>
      <trkpt lat="45.02523" lon="5.33511">
        <ele>384.60000610352</ele>
        <time>2012-07-04T16:52:47.000Z</time>
      </trkpt>
      <trkpt lat="45.02521" lon="5.33515">
        <ele>386</ele>
        <time>2012-07-04T16:52:50.000Z</time>
      </trkpt>
      <trkpt lat="45.02525" lon="5.33524">
        <ele>388.39999389648</ele>
        <time>2012-07-04T16:52:53.000Z</time>
      </trkpt>
      <trkpt lat="45.02532" lon="5.33535">
        <ele>390.39999389648</ele>
        <time>2012-07-04T16:52:57.000Z</time>
      </trkpt>
      <trkpt lat="45.02539" lon="5.33545">
        <ele>395.20001220703</ele>
        <time>2012-07-04T16:53:01.000Z</time>
      </trkpt>
      <trkpt lat="45.02547" lon="5.33565">
        <ele>399</ele>
        <time>2012-07-04T16:53:07.000Z</time>
      </trkpt>
      <trkpt lat="45.02557" lon="5.33581">
        <ele>401.39999389648</ele>
        <time>2012-07-04T16:53:12.000Z</time>
      </trkpt>
      <trkpt lat="45.02567" lon="5.33599">
        <ele>404.79998779297</ele>
        <time>2012-07-04T16:53:18.000Z</time>
      </trkpt>
      <trkpt lat="45.02569" lon="5.33602">
        <ele>405.20001220703</ele>
        <time>2012-07-04T16:53:19.000Z</time>
      </trkpt>
      <trkpt lat="45.02575" lon="5.33615">
        <ele>406.60000610352</ele>
        <time>2012-07-04T16:53:23.000Z</time>
      </trkpt>
      <trkpt lat="45.02585" lon="5.33628">
        <ele>409.60000610352</ele>
        <time>2012-07-04T16:53:27.000Z</time>
      </trkpt>
      <trkpt lat="45.02593" lon="5.33634">
        <ele>411.39999389648</ele>
        <time>2012-07-04T16:53:31.000Z</time>
      </trkpt>
      <trkpt lat="45.02605" lon="5.33647">
        <ele>413.79998779297</ele>
        <time>2012-07-04T16:53:36.000Z</time>
      </trkpt>
      <trkpt lat="45.02608" lon="5.33649">
        <ele>413.39999389648</ele>
        <time>2012-07-04T16:53:37.000Z</time>
      </trkpt>
      <trkpt lat="45.02616" lon="5.33654">
        <ele>413</ele>
        <time>2012-07-04T16:53:40.000Z</time>
      </trkpt>
      <trkpt lat="45.02618" lon="5.33653">
        <ele>412.39999389648</ele>
        <time>2012-07-04T16:53:44.000Z</time>
      </trkpt>
      <trkpt lat="45.02614" lon="5.33652">
        <ele>413.79998779297</ele>
        <time>2012-07-04T16:53:47.000Z</time>
      </trkpt>
      <trkpt lat="45.02605" lon="5.33645">
        <ele>409.60000610352</ele>
        <time>2012-07-04T16:53:53.000Z</time>
      </trkpt>
      <trkpt lat="45.02603" lon="5.33645">
        <ele>408.20001220703</ele>
        <time>2012-07-04T16:53:54.000Z</time>
      </trkpt>
      <trkpt lat="45.02593" lon="5.33638">
        <ele>403.79998779297</ele>
        <time>2012-07-04T16:54:01.000Z</time>
      </trkpt>
      <trkpt lat="45.02586" lon="5.33628">
        <ele>403.39999389648</ele>
        <time>2012-07-04T16:54:06.000Z</time>
      </trkpt>
      <trkpt lat="45.02578" lon="5.33617">
        <ele>402.39999389648</ele>
        <time>2012-07-04T16:54:11.000Z</time>
      </trkpt>
      <trkpt lat="45.02568" lon="5.33606">
        <ele>400</ele>
        <time>2012-07-04T16:54:16.000Z</time>
      </trkpt>
      <trkpt lat="45.0256" lon="5.33603">
        <ele>401.39999389648</ele>
        <time>2012-07-04T16:54:21.000Z</time>
      </trkpt>
      <trkpt lat="45.0255" lon="5.33595">
        <ele>401.39999389648</ele>
        <time>2012-07-04T16:54:27.000Z</time>
      </trkpt>
      <trkpt lat="45.02542" lon="5.33589">
        <ele>401.79998779297</ele>
        <time>2012-07-04T16:54:32.000Z</time>
      </trkpt>
      <trkpt lat="45.02533" lon="5.33582">
        <ele>405.20001220703</ele>
        <time>2012-07-04T16:54:38.000Z</time>
      </trkpt>
      <trkpt lat="45.02521" lon="5.33577">
        <ele>406.60000610352</ele>
        <time>2012-07-04T16:54:45.000Z</time>
      </trkpt>
      <trkpt lat="45.0251" lon="5.33578">
        <ele>406.60000610352</ele>
        <time>2012-07-04T16:54:50.000Z</time>
      </trkpt>
      <trkpt lat="45.02497" lon="5.33579">
        <ele>407.20001220703</ele>
        <time>2012-07-04T16:54:56.000Z</time>
      </trkpt>
      <trkpt lat="45.02488" lon="5.33575">
        <ele>407.60000610352</ele>
        <time>2012-07-04T16:55:01.000Z</time>
      </trkpt>
      <trkpt lat="45.02478" lon="5.33567">
        <ele>409</ele>
        <time>2012-07-04T16:55:06.000Z</time>
      </trkpt>
      <trkpt lat="45.02467" lon="5.33558">
        <ele>405.79998779297</ele>
        <time>2012-07-04T16:55:12.000Z</time>
      </trkpt>
      <trkpt lat="45.02455" lon="5.33551">
        <ele>407.60000610352</ele>
        <time>2012-07-04T16:55:19.000Z</time>
      </trkpt>
      <trkpt lat="45.02444" lon="5.33552">
        <ele>408.60000610352</ele>
        <time>2012-07-04T16:55:25.000Z</time>
      </trkpt>
      <trkpt lat="45.02437" lon="5.33554">
        <ele>403.39999389648</ele>
        <time>2012-07-04T16:55:29.000Z</time>
      </trkpt>
      <trkpt lat="45.02427" lon="5.33562">
        <ele>401.39999389648</ele>
        <time>2012-07-04T16:55:35.000Z</time>
      </trkpt>
      <trkpt lat="45.02429" lon="5.33561">
        <ele>406.20001220703</ele>
        <time>2012-07-04T16:55:37.000Z</time>
      </trkpt>
      <trkpt lat="45.02431" lon="5.33559">
        <ele>407.60000610352</ele>
        <time>2012-07-04T16:55:38.000Z</time>
      </trkpt>
      <trkpt lat="45.02431" lon="5.33559">
        <ele>407.60000610352</ele>
        <time>2012-07-04T16:55:38.000Z</time>
      </trkpt>
      <trkpt lat="45.02433" lon="5.33558">
        <ele>409</ele>
        <time>2012-07-04T16:55:39.000Z</time>
      </trkpt>
      <trkpt lat="45.02452" lon="5.33549">
        <ele>409.60000610352</ele>
        <time>2012-07-04T16:55:44.000Z</time>
      </trkpt>
      <trkpt lat="45.02456" lon="5.33549">
        <ele>409.60000610352</ele>
        <time>2012-07-04T16:55:45.000Z</time>
      </trkpt>
      <trkpt lat="45.02474" lon="5.33565">
        <ele>408.60000610352</ele>
        <time>2012-07-04T16:55:50.000Z</time>
      </trkpt>
      <trkpt lat="45.02478" lon="5.33569">
        <ele>408.20001220703</ele>
        <time>2012-07-04T16:55:51.000Z</time>
      </trkpt>
      <trkpt lat="45.02488" lon="5.33577">
        <ele>408.20001220703</ele>
        <time>2012-07-04T16:55:54.000Z</time>
      </trkpt>
      <trkpt lat="45.02503" lon="5.3358">
        <ele>408.20001220703</ele>
        <time>2012-07-04T16:55:58.000Z</time>
      </trkpt>
      <trkpt lat="45.0253" lon="5.33582">
        <ele>406.20001220703</ele>
        <time>2012-07-04T16:56:05.000Z</time>
      </trkpt>
      <trkpt lat="45.02547" lon="5.33595">
        <ele>402.39999389648</ele>
        <time>2012-07-04T16:56:10.000Z</time>
      </trkpt>
      <trkpt lat="45.02565" lon="5.33608">
        <ele>399.39999389648</ele>
        <time>2012-07-04T16:56:15.000Z</time>
      </trkpt>
      <trkpt lat="45.02583" lon="5.33622">
        <ele>399.39999389648</ele>
        <time>2012-07-04T16:56:20.000Z</time>
      </trkpt>
      <trkpt lat="45.02591" lon="5.33635">
        <ele>401</ele>
        <time>2012-07-04T16:56:25.000Z</time>
      </trkpt>
      <trkpt lat="45.02595" lon="5.3364">
        <ele>401</ele>
        <time>2012-07-04T16:56:27.000Z</time>
      </trkpt>
      <trkpt lat="45.02611" lon="5.33649">
        <ele>401.79998779297</ele>
        <time>2012-07-04T16:56:32.000Z</time>
      </trkpt>
      <trkpt lat="45.02625" lon="5.33656">
        <ele>403.39999389648</ele>
        <time>2012-07-04T16:56:36.000Z</time>
      </trkpt>
      <trkpt lat="45.02643" lon="5.33666">
        <ele>405.79998779297</ele>
        <time>2012-07-04T16:56:41.000Z</time>
      </trkpt>
      <trkpt lat="45.02657" lon="5.33674">
        <ele>405.79998779297</ele>
        <time>2012-07-04T16:56:45.000Z</time>
      </trkpt>
      <trkpt lat="45.0267" lon="5.33681">
        <ele>404.79998779297</ele>
        <time>2012-07-04T16:56:49.000Z</time>
      </trkpt>
      <trkpt lat="45.02686" lon="5.33683">
        <ele>406.20001220703</ele>
        <time>2012-07-04T16:56:53.000Z</time>
      </trkpt>
      <trkpt lat="45.02701" lon="5.3369">
        <ele>404.79998779297</ele>
        <time>2012-07-04T16:56:57.000Z</time>
      </trkpt>
      <trkpt lat="45.02715" lon="5.33699">
        <ele>404.20001220703</ele>
        <time>2012-07-04T16:57:01.000Z</time>
      </trkpt>
      <trkpt lat="45.02728" lon="5.33705">
        <ele>402.39999389648</ele>
        <time>2012-07-04T16:57:05.000Z</time>
      </trkpt>
      <trkpt lat="45.02744" lon="5.33711">
        <ele>401.79998779297</ele>
        <time>2012-07-04T16:57:09.000Z</time>
      </trkpt>
      <trkpt lat="45.02756" lon="5.33722">
        <ele>404.79998779297</ele>
        <time>2012-07-04T16:57:13.000Z</time>
      </trkpt>
      <trkpt lat="45.02758" lon="5.33725">
        <ele>404.20001220703</ele>
        <time>2012-07-04T16:57:14.000Z</time>
      </trkpt>
      <trkpt lat="45.02771" lon="5.33726">
        <ele>404.20001220703</ele>
        <time>2012-07-04T16:57:18.000Z</time>
      </trkpt>
      <trkpt lat="45.02787" lon="5.33725">
        <ele>403.39999389648</ele>
        <time>2012-07-04T16:57:23.000Z</time>
      </trkpt>
      <trkpt lat="45.0279" lon="5.33726">
        <ele>402.39999389648</ele>
        <time>2012-07-04T16:57:24.000Z</time>
      </trkpt>
      <trkpt lat="45.0281" lon="5.33736">
        <ele>400</ele>
        <time>2012-07-04T16:57:30.000Z</time>
      </trkpt>
      <trkpt lat="45.02825" lon="5.33737">
        <ele>401</ele>
        <time>2012-07-04T16:57:34.000Z</time>
      </trkpt>
      <trkpt lat="45.02844" lon="5.3374">
        <ele>400.39999389648</ele>
        <time>2012-07-04T16:57:39.000Z</time>
      </trkpt>
      <trkpt lat="45.02864" lon="5.33745">
        <ele>397</ele>
        <time>2012-07-04T16:57:45.000Z</time>
      </trkpt>
      <trkpt lat="45.02867" lon="5.33745">
        <ele>395.20001220703</ele>
        <time>2012-07-04T16:57:46.000Z</time>
      </trkpt>
      <trkpt lat="45.02877" lon="5.3376">
        <ele>394.20001220703</ele>
        <time>2012-07-04T16:57:51.000Z</time>
      </trkpt>
      <trkpt lat="45.02886" lon="5.33775">
        <ele>393.20001220703</ele>
        <time>2012-07-04T16:57:56.000Z</time>
      </trkpt>
      <trkpt lat="45.02894" lon="5.33784">
        <ele>393.60000610352</ele>
        <time>2012-07-04T16:58:00.000Z</time>
      </trkpt>
      <trkpt lat="45.02896" lon="5.33786">
        <ele>394.20001220703</ele>
        <time>2012-07-04T16:58:01.000Z</time>
      </trkpt>
      <trkpt lat="45.0291" lon="5.33796">
        <ele>398.60000610352</ele>
        <time>2012-07-04T16:58:07.000Z</time>
      </trkpt>
      <trkpt lat="45.02913" lon="5.33799">
        <ele>399</ele>
        <time>2012-07-04T16:58:08.000Z</time>
      </trkpt>
      <trkpt lat="45.02919" lon="5.33801">
        <ele>400</ele>
        <time>2012-07-04T16:58:10.000Z</time>
      </trkpt>
      <trkpt lat="45.02935" lon="5.33808">
        <ele>401.39999389648</ele>
        <time>2012-07-04T16:58:15.000Z</time>
      </trkpt>
      <trkpt lat="45.02951" lon="5.33821">
        <ele>400.39999389648</ele>
        <time>2012-07-04T16:58:19.000Z</time>
      </trkpt>
      <trkpt lat="45.02963" lon="5.33834">
        <ele>400</ele>
        <time>2012-07-04T16:58:23.000Z</time>
      </trkpt>
      <trkpt lat="45.02972" lon="5.33843">
        <ele>399.39999389648</ele>
        <time>2012-07-04T16:58:26.000Z</time>
      </trkpt>
      <trkpt lat="45.02983" lon="5.33854">
        <ele>399</ele>
        <time>2012-07-04T16:58:30.000Z</time>
      </trkpt>
      <trkpt lat="45.02996" lon="5.33868">
        <ele>398</ele>
        <time>2012-07-04T16:58:35.000Z</time>
      </trkpt>
      <trkpt lat="45.03013" lon="5.33872">
        <ele>393.60000610352</ele>
        <time>2012-07-04T16:58:40.000Z</time>
      </trkpt>
      <trkpt lat="45.03029" lon="5.33879">
        <ele>390.79998779297</ele>
        <time>2012-07-04T16:58:44.000Z</time>
      </trkpt>
      <trkpt lat="45.03041" lon="5.33896">
        <ele>388</ele>
        <time>2012-07-04T16:58:49.000Z</time>
      </trkpt>
      <trkpt lat="45.03064" lon="5.33911">
        <ele>386.39999389648</ele>
        <time>2012-07-04T16:58:55.000Z</time>
      </trkpt>
      <trkpt lat="45.03083" lon="5.33926">
        <ele>386.39999389648</ele>
        <time>2012-07-04T16:59:00.000Z</time>
      </trkpt>
      <trkpt lat="45.03103" lon="5.33941">
        <ele>386.39999389648</ele>
        <time>2012-07-04T16:59:06.000Z</time>
      </trkpt>
      <trkpt lat="45.0311" lon="5.33946">
        <ele>388</ele>
        <time>2012-07-04T16:59:08.000Z</time>
      </trkpt>
      <trkpt lat="45.03128" lon="5.33962">
        <ele>388.39999389648</ele>
        <time>2012-07-04T16:59:14.000Z</time>
      </trkpt>
      <trkpt lat="45.0314" lon="5.33974">
        <ele>388.39999389648</ele>
        <time>2012-07-04T16:59:18.000Z</time>
      </trkpt>
      <trkpt lat="45.03156" lon="5.33983">
        <ele>386</ele>
        <time>2012-07-04T16:59:22.000Z</time>
      </trkpt>
      <trkpt lat="45.03168" lon="5.3399">
        <ele>386</ele>
        <time>2012-07-04T16:59:25.000Z</time>
      </trkpt>
      <trkpt lat="45.03189" lon="5.3401">
        <ele>380.79998779297</ele>
        <time>2012-07-04T16:59:31.000Z</time>
      </trkpt>
      <trkpt lat="45.03199" lon="5.3402">
        <ele>378.39999389648</ele>
        <time>2012-07-04T16:59:34.000Z</time>
      </trkpt>
      <trkpt lat="45.03211" lon="5.34029">
        <ele>374</ele>
        <time>2012-07-04T16:59:37.000Z</time>
      </trkpt>
      <trkpt lat="45.03221" lon="5.34034">
        <ele>371.20001220703</ele>
        <time>2012-07-04T16:59:40.000Z</time>
      </trkpt>
      <trkpt lat="45.03234" lon="5.3404">
        <ele>367.79998779297</ele>
        <time>2012-07-04T16:59:43.000Z</time>
      </trkpt>
      <trkpt lat="45.03251" lon="5.3405">
        <ele>363</ele>
        <time>2012-07-04T16:59:47.000Z</time>
      </trkpt>
      <trkpt lat="45.03258" lon="5.34054">
        <ele>361</ele>
        <time>2012-07-04T16:59:49.000Z</time>
      </trkpt>
      <trkpt lat="45.0327" lon="5.34063">
        <ele>358.60000610352</ele>
        <time>2012-07-04T16:59:52.000Z</time>
      </trkpt>
      <trkpt lat="45.03277" lon="5.34071">
        <ele>357.60000610352</ele>
        <time>2012-07-04T16:59:54.000Z</time>
      </trkpt>
      <trkpt lat="45.03284" lon="5.34083">
        <ele>358.60000610352</ele>
        <time>2012-07-04T16:59:57.000Z</time>
      </trkpt>
      <trkpt lat="45.03291" lon="5.34099">
        <ele>359.60000610352</ele>
        <time>2012-07-04T17:00:01.000Z</time>
      </trkpt>
      <trkpt lat="45.03298" lon="5.34122">
        <ele>363.39999389648</ele>
        <time>2012-07-04T17:00:07.000Z</time>
      </trkpt>
      <trkpt lat="45.03299" lon="5.34125">
        <ele>366.20001220703</ele>
        <time>2012-07-04T17:00:08.000Z</time>
      </trkpt>
      <trkpt lat="45.03307" lon="5.34144">
        <ele>371.60000610352</ele>
        <time>2012-07-04T17:00:14.000Z</time>
      </trkpt>
      <trkpt lat="45.03317" lon="5.34163">
        <ele>374.39999389648</ele>
        <time>2012-07-04T17:00:19.000Z</time>
      </trkpt>
      <trkpt lat="45.03325" lon="5.34179">
        <ele>378.79998779297</ele>
        <time>2012-07-04T17:00:24.000Z</time>
      </trkpt>
      <trkpt lat="45.0333" lon="5.34196">
        <ele>381.20001220703</ele>
        <time>2012-07-04T17:00:29.000Z</time>
      </trkpt>
      <trkpt lat="45.03342" lon="5.34216">
        <ele>382.60000610352</ele>
        <time>2012-07-04T17:00:34.000Z</time>
      </trkpt>
      <trkpt lat="45.03349" lon="5.34229">
        <ele>382.20001220703</ele>
        <time>2012-07-04T17:00:37.000Z</time>
      </trkpt>
      <trkpt lat="45.03353" lon="5.34236">
        <ele>382.20001220703</ele>
        <time>2012-07-04T17:00:39.000Z</time>
      </trkpt>
      <trkpt lat="45.03356" lon="5.34237">
        <ele>381.20001220703</ele>
        <time>2012-07-04T17:00:43.000Z</time>
      </trkpt>
      <trkpt lat="45.03354" lon="5.34233">
        <ele>380.79998779297</ele>
        <time>2012-07-04T17:00:45.000Z</time>
      </trkpt>
      <trkpt lat="45.03348" lon="5.34228">
        <ele>379.79998779297</ele>
        <time>2012-07-04T17:00:50.000Z</time>
      </trkpt>
      <trkpt lat="45.03344" lon="5.34224">
        <ele>377.39999389648</ele>
        <time>2012-07-04T17:00:54.000Z</time>
      </trkpt>
      <trkpt lat="45.03339" lon="5.34216">
        <ele>381.20001220703</ele>
        <time>2012-07-04T17:00:59.000Z</time>
      </trkpt>
      <trkpt lat="45.03338" lon="5.34214">
        <ele>381.60000610352</ele>
        <time>2012-07-04T17:01:00.000Z</time>
      </trkpt>
      <trkpt lat="45.03334" lon="5.34207">
        <ele>383.20001220703</ele>
        <time>2012-07-04T17:01:04.000Z</time>
      </trkpt>
      <trkpt lat="45.03328" lon="5.34193">
        <ele>383.60000610352</ele>
        <time>2012-07-04T17:01:10.000Z</time>
      </trkpt>
      <trkpt lat="45.03327" lon="5.3419">
        <ele>383.20001220703</ele>
        <time>2012-07-04T17:01:11.000Z</time>
      </trkpt>
      <trkpt lat="45.03323" lon="5.34183">
        <ele>383.60000610352</ele>
        <time>2012-07-04T17:01:16.000Z</time>
      </trkpt>
      <trkpt lat="45.03318" lon="5.34171">
        <ele>382.60000610352</ele>
        <time>2012-07-04T17:01:21.000Z</time>
      </trkpt>
      <trkpt lat="45.03315" lon="5.34157">
        <ele>381.60000610352</ele>
        <time>2012-07-04T17:01:25.000Z</time>
      </trkpt>
      <trkpt lat="45.03308" lon="5.34137">
        <ele>379.79998779297</ele>
        <time>2012-07-04T17:01:33.000Z</time>
      </trkpt>
      <trkpt lat="45.03303" lon="5.34125">
        <ele>378.39999389648</ele>
        <time>2012-07-04T17:01:38.000Z</time>
      </trkpt>
      <trkpt lat="45.03298" lon="5.3411">
        <ele>377.39999389648</ele>
        <time>2012-07-04T17:01:43.000Z</time>
      </trkpt>
      <trkpt lat="45.03293" lon="5.341">
        <ele>376.79998779297</ele>
        <time>2012-07-04T17:01:47.000Z</time>
      </trkpt>
      <trkpt lat="45.03289" lon="5.3409">
        <ele>376.79998779297</ele>
        <time>2012-07-04T17:01:51.000Z</time>
      </trkpt>
      <trkpt lat="45.03282" lon="5.34079">
        <ele>375</ele>
        <time>2012-07-04T17:01:57.000Z</time>
      </trkpt>
      <trkpt lat="45.03278" lon="5.34075">
        <ele>376.79998779297</ele>
        <time>2012-07-04T17:02:00.000Z</time>
      </trkpt>
      <trkpt lat="45.03269" lon="5.34065">
        <ele>378.39999389648</ele>
        <time>2012-07-04T17:02:06.000Z</time>
      </trkpt>
      <trkpt lat="45.03264" lon="5.34057">
        <ele>379.20001220703</ele>
        <time>2012-07-04T17:02:10.000Z</time>
      </trkpt>
      <trkpt lat="45.03258" lon="5.34051">
        <ele>379.20001220703</ele>
        <time>2012-07-04T17:02:15.000Z</time>
      </trkpt>
      <trkpt lat="45.03257" lon="5.3405">
        <ele>378.79998779297</ele>
        <time>2012-07-04T17:02:16.000Z</time>
      </trkpt>
      <trkpt lat="45.03249" lon="5.34048">
        <ele>376.39999389648</ele>
        <time>2012-07-04T17:02:23.000Z</time>
      </trkpt>
      <trkpt lat="45.03247" lon="5.34047">
        <ele>376.39999389648</ele>
        <time>2012-07-04T17:02:24.000Z</time>
      </trkpt>
      <trkpt lat="45.03242" lon="5.34047">
        <ele>373</ele>
        <time>2012-07-04T17:02:29.000Z</time>
      </trkpt>
      <trkpt lat="45.03237" lon="5.34042">
        <ele>374</ele>
        <time>2012-07-04T17:02:36.000Z</time>
      </trkpt>
      <trkpt lat="45.03239" lon="5.34042">
        <ele>374</ele>
        <time>2012-07-04T17:02:37.000Z</time>
      </trkpt>
      <trkpt lat="45.03245" lon="5.34044">
        <ele>374.39999389648</ele>
        <time>2012-07-04T17:02:40.000Z</time>
      </trkpt>
      <trkpt lat="45.03263" lon="5.34057">
        <ele>373</ele>
        <time>2012-07-04T17:02:46.000Z</time>
      </trkpt>
      <trkpt lat="45.03276" lon="5.3407">
        <ele>371.20001220703</ele>
        <time>2012-07-04T17:02:50.000Z</time>
      </trkpt>
      <trkpt lat="45.03287" lon="5.34087">
        <ele>369.60000610352</ele>
        <time>2012-07-04T17:02:54.000Z</time>
      </trkpt>
      <trkpt lat="45.03294" lon="5.34104">
        <ele>369.20001220703</ele>
        <time>2012-07-04T17:02:59.000Z</time>
      </trkpt>
      <trkpt lat="45.03298" lon="5.34119">
        <ele>370.60000610352</ele>
        <time>2012-07-04T17:03:03.000Z</time>
      </trkpt>
      <trkpt lat="45.03307" lon="5.34134">
        <ele>371.60000610352</ele>
        <time>2012-07-04T17:03:08.000Z</time>
      </trkpt>
      <trkpt lat="45.03312" lon="5.3415">
        <ele>371.20001220703</ele>
        <time>2012-07-04T17:03:13.000Z</time>
      </trkpt>
      <trkpt lat="45.03318" lon="5.34167">
        <ele>372.60000610352</ele>
        <time>2012-07-04T17:03:19.000Z</time>
      </trkpt>
      <trkpt lat="45.0332" lon="5.3418">
        <ele>374</ele>
        <time>2012-07-04T17:03:23.000Z</time>
      </trkpt>
      <trkpt lat="45.03321" lon="5.34182">
        <ele>373.60000610352</ele>
        <time>2012-07-04T17:03:24.000Z</time>
      </trkpt>
      <trkpt lat="45.03332" lon="5.34203">
        <ele>374.39999389648</ele>
        <time>2012-07-04T17:03:30.000Z</time>
      </trkpt>
      <trkpt lat="45.03334" lon="5.34206">
        <ele>374.39999389648</ele>
        <time>2012-07-04T17:03:31.000Z</time>
      </trkpt>
      <trkpt lat="45.03345" lon="5.3422">
        <ele>376</ele>
        <time>2012-07-04T17:03:36.000Z</time>
      </trkpt>
      <trkpt lat="45.03356" lon="5.34235">
        <ele>375.39999389648</ele>
        <time>2012-07-04T17:03:40.000Z</time>
      </trkpt>
      <trkpt lat="45.03372" lon="5.34255">
        <ele>376</ele>
        <time>2012-07-04T17:03:45.000Z</time>
      </trkpt>
      <trkpt lat="45.03382" lon="5.34268">
        <ele>376.79998779297</ele>
        <time>2012-07-04T17:03:49.000Z</time>
      </trkpt>
      <trkpt lat="45.03392" lon="5.34279">
        <ele>376.79998779297</ele>
        <time>2012-07-04T17:03:53.000Z</time>
      </trkpt>
      <trkpt lat="45.03405" lon="5.34286">
        <ele>377.39999389648</ele>
        <time>2012-07-04T17:03:57.000Z</time>
      </trkpt>
      <trkpt lat="45.03415" lon="5.34291">
        <ele>376.79998779297</ele>
        <time>2012-07-04T17:04:00.000Z</time>
      </trkpt>
      <trkpt lat="45.03427" lon="5.34304">
        <ele>376</ele>
        <time>2012-07-04T17:04:05.000Z</time>
      </trkpt>
      <trkpt lat="45.03435" lon="5.34312">
        <ele>376.39999389648</ele>
        <time>2012-07-04T17:04:09.000Z</time>
      </trkpt>
      <trkpt lat="45.03443" lon="5.34297">
        <ele>375</ele>
        <time>2012-07-04T17:04:13.000Z</time>
      </trkpt>
      <trkpt lat="45.0345" lon="5.3428">
        <ele>374</ele>
        <time>2012-07-04T17:04:17.000Z</time>
      </trkpt>
      <trkpt lat="45.03453" lon="5.3426">
        <ele>371.60000610352</ele>
        <time>2012-07-04T17:04:22.000Z</time>
      </trkpt>
      <trkpt lat="45.03454" lon="5.34238">
        <ele>369.60000610352</ele>
        <time>2012-07-04T17:04:27.000Z</time>
      </trkpt>
      <trkpt lat="45.03457" lon="5.34223">
        <ele>364.79998779297</ele>
        <time>2012-07-04T17:04:30.000Z</time>
      </trkpt>
      <trkpt lat="45.03461" lon="5.34204">
        <ele>359</ele>
        <time>2012-07-04T17:04:34.000Z</time>
      </trkpt>
      <trkpt lat="45.03464" lon="5.34181">
        <ele>352.79998779297</ele>
        <time>2012-07-04T17:04:38.000Z</time>
      </trkpt>
      <trkpt lat="45.03467" lon="5.34165">
        <ele>349.39999389648</ele>
        <time>2012-07-04T17:04:41.000Z</time>
      </trkpt>
      <trkpt lat="45.03473" lon="5.3415">
        <ele>345.60000610352</ele>
        <time>2012-07-04T17:04:45.000Z</time>
      </trkpt>
      <trkpt lat="45.03486" lon="5.3416">
        <ele>341.39999389648</ele>
        <time>2012-07-04T17:04:49.000Z</time>
      </trkpt>
      <trkpt lat="45.03506" lon="5.34174">
        <ele>339.39999389648</ele>
        <time>2012-07-04T17:04:55.000Z</time>
      </trkpt>
      <trkpt lat="45.03527" lon="5.34183">
        <ele>339</ele>
        <time>2012-07-04T17:05:01.000Z</time>
      </trkpt>
      <trkpt lat="45.03541" lon="5.34188">
        <ele>340.39999389648</ele>
        <time>2012-07-04T17:05:05.000Z</time>
      </trkpt>
      <trkpt lat="45.03551" lon="5.34196">
        <ele>340.79998779297</ele>
        <time>2012-07-04T17:05:09.000Z</time>
      </trkpt>
      <trkpt lat="45.03566" lon="5.342">
        <ele>341.39999389648</ele>
        <time>2012-07-04T17:05:14.000Z</time>
      </trkpt>
      <trkpt lat="45.03573" lon="5.34202">
        <ele>339.39999389648</ele>
        <time>2012-07-04T17:05:16.000Z</time>
      </trkpt>
      <trkpt lat="45.03592" lon="5.34205">
        <ele>339.39999389648</ele>
        <time>2012-07-04T17:05:21.000Z</time>
      </trkpt>
      <trkpt lat="45.03608" lon="5.34203">
        <ele>340.79998779297</ele>
        <time>2012-07-04T17:05:25.000Z</time>
      </trkpt>
      <trkpt lat="45.0362" lon="5.34204">
        <ele>340.39999389648</ele>
        <time>2012-07-04T17:05:29.000Z</time>
      </trkpt>
      <trkpt lat="45.03635" lon="5.342">
        <ele>341.39999389648</ele>
        <time>2012-07-04T17:05:33.000Z</time>
      </trkpt>
      <trkpt lat="45.03658" lon="5.34197">
        <ele>339</ele>
        <time>2012-07-04T17:05:39.000Z</time>
      </trkpt>
      <trkpt lat="45.03672" lon="5.34193">
        <ele>339</ele>
        <time>2012-07-04T17:05:43.000Z</time>
      </trkpt>
      <trkpt lat="45.0369" lon="5.34191">
        <ele>340.79998779297</ele>
        <time>2012-07-04T17:05:48.000Z</time>
      </trkpt>
      <trkpt lat="45.03702" lon="5.34188">
        <ele>343.20001220703</ele>
        <time>2012-07-04T17:05:52.000Z</time>
      </trkpt>
      <trkpt lat="45.03705" lon="5.34187">
        <ele>345.20001220703</ele>
        <time>2012-07-04T17:05:55.000Z</time>
      </trkpt>
      <trkpt lat="45.03719" lon="5.34188">
        <ele>348</ele>
        <time>2012-07-04T17:06:00.000Z</time>
      </trkpt>
      <trkpt lat="45.03728" lon="5.34188">
        <ele>349</ele>
        <time>2012-07-04T17:06:02.000Z</time>
      </trkpt>
      <trkpt lat="45.03752" lon="5.34191">
        <ele>348.60000610352</ele>
        <time>2012-07-04T17:06:08.000Z</time>
      </trkpt>
      <trkpt lat="45.03766" lon="5.34186">
        <ele>348</ele>
        <time>2012-07-04T17:06:12.000Z</time>
      </trkpt>
      <trkpt lat="45.03781" lon="5.34182">
        <ele>346.20001220703</ele>
        <time>2012-07-04T17:06:16.000Z</time>
      </trkpt>
      <trkpt lat="45.03797" lon="5.34187">
        <ele>341.79998779297</ele>
        <time>2012-07-04T17:06:20.000Z</time>
      </trkpt>
      <trkpt lat="45.03811" lon="5.34194">
        <ele>341.79998779297</ele>
        <time>2012-07-04T17:06:24.000Z</time>
      </trkpt>
      <trkpt lat="45.03824" lon="5.34199">
        <ele>340.39999389648</ele>
        <time>2012-07-04T17:06:28.000Z</time>
      </trkpt>
      <trkpt lat="45.03836" lon="5.34204">
        <ele>341.39999389648</ele>
        <time>2012-07-04T17:06:32.000Z</time>
      </trkpt>
      <trkpt lat="45.03848" lon="5.34209">
        <ele>342.20001220703</ele>
        <time>2012-07-04T17:06:36.000Z</time>
      </trkpt>
      <trkpt lat="45.03865" lon="5.34218">
        <ele>342.20001220703</ele>
        <time>2012-07-04T17:06:41.000Z</time>
      </trkpt>
      <trkpt lat="45.03882" lon="5.34221">
        <ele>344.20001220703</ele>
        <time>2012-07-04T17:06:46.000Z</time>
      </trkpt>
      <trkpt lat="45.039" lon="5.34219">
        <ele>350</ele>
        <time>2012-07-04T17:06:51.000Z</time>
      </trkpt>
      <trkpt lat="45.03918" lon="5.34216">
        <ele>350.39999389648</ele>
        <time>2012-07-04T17:06:56.000Z</time>
      </trkpt>
      <trkpt lat="45.03931" lon="5.34218">
        <ele>349</ele>
        <time>2012-07-04T17:07:00.000Z</time>
      </trkpt>
      <trkpt lat="45.03949" lon="5.34221">
        <ele>350</ele>
        <time>2012-07-04T17:07:05.000Z</time>
      </trkpt>
      <trkpt lat="45.03962" lon="5.34221">
        <ele>351.79998779297</ele>
        <time>2012-07-04T17:07:10.000Z</time>
      </trkpt>
      <trkpt lat="45.03974" lon="5.34226">
        <ele>354.20001220703</ele>
        <time>2012-07-04T17:07:14.000Z</time>
      </trkpt>
      <trkpt lat="45.03986" lon="5.34234">
        <ele>356.20001220703</ele>
        <time>2012-07-04T17:07:19.000Z</time>
      </trkpt>
      <trkpt lat="45.03997" lon="5.34242">
        <ele>360</ele>
        <time>2012-07-04T17:07:23.000Z</time>
      </trkpt>
      <trkpt lat="45.04009" lon="5.34252">
        <ele>361</ele>
        <time>2012-07-04T17:07:27.000Z</time>
      </trkpt>
      <trkpt lat="45.04022" lon="5.34269">
        <ele>363</ele>
        <time>2012-07-04T17:07:32.000Z</time>
      </trkpt>
      <trkpt lat="45.04039" lon="5.34283">
        <ele>363.79998779297</ele>
        <time>2012-07-04T17:07:37.000Z</time>
      </trkpt>
      <trkpt lat="45.04043" lon="5.34286">
        <ele>363.79998779297</ele>
        <time>2012-07-04T17:07:38.000Z</time>
      </trkpt>
      <trkpt lat="45.04043" lon="5.34286">
        <ele>363.79998779297</ele>
        <time>2012-07-04T17:07:38.000Z</time>
      </trkpt>
      <trkpt lat="45.04051" lon="5.3429">
        <ele>362.39999389648</ele>
        <time>2012-07-04T17:07:42.000Z</time>
      </trkpt>
      <trkpt lat="45.04049" lon="5.34292">
        <ele>360</ele>
        <time>2012-07-04T17:07:59.000Z</time>
      </trkpt>
      <trkpt lat="45.0405" lon="5.34294">
        <ele>359.60000610352</ele>
        <time>2012-07-04T17:08:04.000Z</time>
      </trkpt>
      <trkpt lat="45.04051" lon="5.34294">
        <ele>359</ele>
        <time>2012-07-04T17:08:09.000Z</time>
      </trkpt>
      <trkpt lat="45.04053" lon="5.34293">
        <ele>358.60000610352</ele>
        <time>2012-07-04T17:08:11.000Z</time>
      </trkpt>
      <trkpt lat="45.04066" lon="5.3429">
        <ele>357.20001220703</ele>
        <time>2012-07-04T17:08:18.000Z</time>
      </trkpt>
      <trkpt lat="45.04072" lon="5.34288">
        <ele>356.20001220703</ele>
        <time>2012-07-04T17:08:21.000Z</time>
      </trkpt>
      <trkpt lat="45.04076" lon="5.34286">
        <ele>356.20001220703</ele>
        <time>2012-07-04T17:08:23.000Z</time>
      </trkpt>
      <trkpt lat="45.04087" lon="5.34283">
        <ele>354.20001220703</ele>
        <time>2012-07-04T17:08:28.000Z</time>
      </trkpt>
      <trkpt lat="45.04097" lon="5.34281">
        <ele>351.39999389648</ele>
        <time>2012-07-04T17:08:33.000Z</time>
      </trkpt>
      <trkpt lat="45.04108" lon="5.34289">
        <ele>347</ele>
        <time>2012-07-04T17:08:39.000Z</time>
      </trkpt>
      <trkpt lat="45.04118" lon="5.34298">
        <ele>345.60000610352</ele>
        <time>2012-07-04T17:08:44.000Z</time>
      </trkpt>
      <trkpt lat="45.04127" lon="5.34306">
        <ele>344.20001220703</ele>
        <time>2012-07-04T17:08:49.000Z</time>
      </trkpt>
      <trkpt lat="45.04128" lon="5.34309">
        <ele>344.60000610352</ele>
        <time>2012-07-04T17:08:50.000Z</time>
      </trkpt>
      <trkpt lat="45.04134" lon="5.34318">
        <ele>345.20001220703</ele>
        <time>2012-07-04T17:08:54.000Z</time>
      </trkpt>
      <trkpt lat="45.04141" lon="5.34323">
        <ele>345.60000610352</ele>
        <time>2012-07-04T17:08:59.000Z</time>
      </trkpt>
      <trkpt lat="45.0415" lon="5.34324">
        <ele>346.20001220703</ele>
        <time>2012-07-04T17:09:03.000Z</time>
      </trkpt>
      <trkpt lat="45.04159" lon="5.34322">
        <ele>347.60000610352</ele>
        <time>2012-07-04T17:09:07.000Z</time>
      </trkpt>
      <trkpt lat="45.04175" lon="5.34319">
        <ele>348.60000610352</ele>
        <time>2012-07-04T17:09:14.000Z</time>
      </trkpt>
      <trkpt lat="45.04188" lon="5.3432">
        <ele>347</ele>
        <time>2012-07-04T17:09:20.000Z</time>
      </trkpt>
      <trkpt lat="45.04198" lon="5.34321">
        <ele>347</ele>
        <time>2012-07-04T17:09:25.000Z</time>
      </trkpt>
      <trkpt lat="45.0421" lon="5.34319">
        <ele>346.60000610352</ele>
        <time>2012-07-04T17:09:31.000Z</time>
      </trkpt>
      <trkpt lat="45.04216" lon="5.3432">
        <ele>345.20001220703</ele>
        <time>2012-07-04T17:09:34.000Z</time>
      </trkpt>
      <trkpt lat="45.04217" lon="5.34324">
        <ele>344.20001220703</ele>
        <time>2012-07-04T17:09:37.000Z</time>
      </trkpt>
      <trkpt lat="45.04215" lon="5.34323">
        <ele>343.79998779297</ele>
        <time>2012-07-04T17:09:38.000Z</time>
      </trkpt>
      <trkpt lat="45.04215" lon="5.34323">
        <ele>343.79998779297</ele>
        <time>2012-07-04T17:09:38.000Z</time>
      </trkpt>
      <trkpt lat="45.04203" lon="5.34319">
        <ele>340.79998779297</ele>
        <time>2012-07-04T17:09:43.000Z</time>
      </trkpt>
      <trkpt lat="45.04189" lon="5.34319">
        <ele>340.39999389648</ele>
        <time>2012-07-04T17:09:47.000Z</time>
      </trkpt>
      <trkpt lat="45.04176" lon="5.34319">
        <ele>341.79998779297</ele>
        <time>2012-07-04T17:09:51.000Z</time>
      </trkpt>
      <trkpt lat="45.04154" lon="5.34319">
        <ele>342.20001220703</ele>
        <time>2012-07-04T17:09:57.000Z</time>
      </trkpt>
      <trkpt lat="45.04137" lon="5.34313">
        <ele>343.79998779297</ele>
        <time>2012-07-04T17:10:02.000Z</time>
      </trkpt>
      <trkpt lat="45.04121" lon="5.34301">
        <ele>344.60000610352</ele>
        <time>2012-07-04T17:10:07.000Z</time>
      </trkpt>
      <trkpt lat="45.04107" lon="5.34287">
        <ele>346.60000610352</ele>
        <time>2012-07-04T17:10:12.000Z</time>
      </trkpt>
      <trkpt lat="45.04095" lon="5.3428">
        <ele>347.60000610352</ele>
        <time>2012-07-04T17:10:16.000Z</time>
      </trkpt>
      <trkpt lat="45.04085" lon="5.3428">
        <ele>348</ele>
        <time>2012-07-04T17:10:20.000Z</time>
      </trkpt>
      <trkpt lat="45.0407" lon="5.34282">
        <ele>347</ele>
        <time>2012-07-04T17:10:25.000Z</time>
      </trkpt>
      <trkpt lat="45.04052" lon="5.34282">
        <ele>346.60000610352</ele>
        <time>2012-07-04T17:10:30.000Z</time>
      </trkpt>
      <trkpt lat="45.0404" lon="5.34276">
        <ele>348.60000610352</ele>
        <time>2012-07-04T17:10:34.000Z</time>
      </trkpt>
      <trkpt lat="45.04026" lon="5.34266">
        <ele>347</ele>
        <time>2012-07-04T17:10:38.000Z</time>
      </trkpt>
      <trkpt lat="45.04006" lon="5.34251">
        <ele>350</ele>
        <time>2012-07-04T17:10:44.000Z</time>
      </trkpt>
      <trkpt lat="45.03989" lon="5.34239">
        <ele>349</ele>
        <time>2012-07-04T17:10:49.000Z</time>
      </trkpt>
      <trkpt lat="45.03975" lon="5.34232">
        <ele>349.39999389648</ele>
        <time>2012-07-04T17:10:53.000Z</time>
      </trkpt>
      <trkpt lat="45.03962" lon="5.34222">
        <ele>350</ele>
        <time>2012-07-04T17:10:57.000Z</time>
      </trkpt>
      <trkpt lat="45.03942" lon="5.34217">
        <ele>349</ele>
        <time>2012-07-04T17:11:02.000Z</time>
      </trkpt>
      <trkpt lat="45.03924" lon="5.34217">
        <ele>349</ele>
        <time>2012-07-04T17:11:07.000Z</time>
      </trkpt>
      <trkpt lat="45.0391" lon="5.34216">
        <ele>347</ele>
        <time>2012-07-04T17:11:11.000Z</time>
      </trkpt>
      <trkpt lat="45.03894" lon="5.34219">
        <ele>347</ele>
        <time>2012-07-04T17:11:15.000Z</time>
      </trkpt>
      <trkpt lat="45.03881" lon="5.34218">
        <ele>346.20001220703</ele>
        <time>2012-07-04T17:11:19.000Z</time>
      </trkpt>
      <trkpt lat="45.03867" lon="5.34216">
        <ele>346.60000610352</ele>
        <time>2012-07-04T17:11:23.000Z</time>
      </trkpt>
      <trkpt lat="45.03852" lon="5.34214">
        <ele>347</ele>
        <time>2012-07-04T17:11:27.000Z</time>
      </trkpt>
      <trkpt lat="45.03837" lon="5.34208">
        <ele>347.60000610352</ele>
        <time>2012-07-04T17:11:31.000Z</time>
      </trkpt>
      <trkpt lat="45.0382" lon="5.34198">
        <ele>348</ele>
        <time>2012-07-04T17:11:36.000Z</time>
      </trkpt>
      <trkpt lat="45.03805" lon="5.34192">
        <ele>347</ele>
        <time>2012-07-04T17:11:40.000Z</time>
      </trkpt>
      <trkpt lat="45.03788" lon="5.34186">
        <ele>346.60000610352</ele>
        <time>2012-07-04T17:11:45.000Z</time>
      </trkpt>
      <trkpt lat="45.03771" lon="5.34183">
        <ele>344.20001220703</ele>
        <time>2012-07-04T17:11:50.000Z</time>
      </trkpt>
      <trkpt lat="45.03761" lon="5.34187">
        <ele>345.20001220703</ele>
        <time>2012-07-04T17:11:54.000Z</time>
      </trkpt>
      <trkpt lat="45.03747" lon="5.3419">
        <ele>345.20001220703</ele>
        <time>2012-07-04T17:12:00.000Z</time>
      </trkpt>
      <trkpt lat="45.03732" lon="5.34187">
        <ele>345.60000610352</ele>
        <time>2012-07-04T17:12:06.000Z</time>
      </trkpt>
      <trkpt lat="45.0372" lon="5.34184">
        <ele>345.20001220703</ele>
        <time>2012-07-04T17:12:10.000Z</time>
      </trkpt>
      <trkpt lat="45.03711" lon="5.34181">
        <ele>346.20001220703</ele>
        <time>2012-07-04T17:12:14.000Z</time>
      </trkpt>
      <trkpt lat="45.03701" lon="5.34183">
        <ele>348.60000610352</ele>
        <time>2012-07-04T17:12:18.000Z</time>
      </trkpt>
      <trkpt lat="45.0369" lon="5.34184">
        <ele>348.60000610352</ele>
        <time>2012-07-04T17:12:21.000Z</time>
      </trkpt>
      <trkpt lat="45.03673" lon="5.34185">
        <ele>349</ele>
        <time>2012-07-04T17:12:26.000Z</time>
      </trkpt>
      <trkpt lat="45.03668" lon="5.34187">
        <ele>347.60000610352</ele>
        <time>2012-07-04T17:12:28.000Z</time>
      </trkpt>
      <trkpt lat="45.03648" lon="5.34191">
        <ele>346.20001220703</ele>
        <time>2012-07-04T17:12:33.000Z</time>
      </trkpt>
      <trkpt lat="45.0363" lon="5.34194">
        <ele>348</ele>
        <time>2012-07-04T17:12:38.000Z</time>
      </trkpt>
      <trkpt lat="45.03614" lon="5.34195">
        <ele>347</ele>
        <time>2012-07-04T17:12:42.000Z</time>
      </trkpt>
      <trkpt lat="45.03597" lon="5.34193">
        <ele>347</ele>
        <time>2012-07-04T17:12:46.000Z</time>
      </trkpt>
      <trkpt lat="45.0358" lon="5.34194">
        <ele>348.60000610352</ele>
        <time>2012-07-04T17:12:51.000Z</time>
      </trkpt>
      <trkpt lat="45.03559" lon="5.34193">
        <ele>349.39999389648</ele>
        <time>2012-07-04T17:12:57.000Z</time>
      </trkpt>
      <trkpt lat="45.03543" lon="5.34187">
        <ele>350</ele>
        <time>2012-07-04T17:13:01.000Z</time>
      </trkpt>
      <trkpt lat="45.03528" lon="5.34175">
        <ele>351</ele>
        <time>2012-07-04T17:13:05.000Z</time>
      </trkpt>
      <trkpt lat="45.0352" lon="5.34172">
        <ele>347.60000610352</ele>
        <time>2012-07-04T17:13:07.000Z</time>
      </trkpt>
      <trkpt lat="45.03512" lon="5.3417">
        <ele>347</ele>
        <time>2012-07-04T17:13:09.000Z</time>
      </trkpt>
      <trkpt lat="45.03494" lon="5.34163">
        <ele>344.60000610352</ele>
        <time>2012-07-04T17:13:14.000Z</time>
      </trkpt>
      <trkpt lat="45.03472" lon="5.34158">
        <ele>344.60000610352</ele>
        <time>2012-07-04T17:13:20.000Z</time>
      </trkpt>
      <trkpt lat="45.03465" lon="5.34154">
        <ele>345.20001220703</ele>
        <time>2012-07-04T17:13:23.000Z</time>
      </trkpt>
      <trkpt lat="45.03453" lon="5.34164">
        <ele>346.20001220703</ele>
        <time>2012-07-04T17:13:28.000Z</time>
      </trkpt>
      <trkpt lat="45.03447" lon="5.3417">
        <ele>347.60000610352</ele>
        <time>2012-07-04T17:13:32.000Z</time>
      </trkpt>
      <trkpt lat="45.03443" lon="5.34178">
        <ele>350.39999389648</ele>
        <time>2012-07-04T17:13:36.000Z</time>
      </trkpt>
      <trkpt lat="45.0344" lon="5.34194">
        <ele>356.60000610352</ele>
        <time>2012-07-04T17:13:42.000Z</time>
      </trkpt>
      <trkpt lat="45.0344" lon="5.34208">
        <ele>361</ele>
        <time>2012-07-04T17:13:47.000Z</time>
      </trkpt>
      <trkpt lat="45.03437" lon="5.34218">
        <ele>366.20001220703</ele>
        <time>2012-07-04T17:13:52.000Z</time>
      </trkpt>
      <trkpt lat="45.03431" lon="5.34231">
        <ele>375.39999389648</ele>
        <time>2012-07-04T17:13:58.000Z</time>
      </trkpt>
      <trkpt lat="45.0343" lon="5.34235">
        <ele>376.79998779297</ele>
        <time>2012-07-04T17:14:01.000Z</time>
      </trkpt>
      <trkpt lat="45.0343" lon="5.34238">
        <ele>378.79998779297</ele>
        <time>2012-07-04T17:14:03.000Z</time>
      </trkpt>
      <trkpt lat="45.03426" lon="5.3424">
        <ele>381.60000610352</ele>
        <time>2012-07-04T17:14:09.000Z</time>
      </trkpt>
      <trkpt lat="45.03428" lon="5.34238">
        <ele>382.60000610352</ele>
        <time>2012-07-04T17:14:17.000Z</time>
      </trkpt>
      <trkpt lat="45.0343" lon="5.34238">
        <ele>383.20001220703</ele>
        <time>2012-07-04T17:14:28.000Z</time>
      </trkpt>
      <trkpt lat="45.03431" lon="5.34243">
        <ele>377.39999389648</ele>
        <time>2012-07-04T17:14:37.000Z</time>
      </trkpt>
      <trkpt lat="45.03428" lon="5.34242">
        <ele>377.79998779297</ele>
        <time>2012-07-04T17:14:49.000Z</time>
      </trkpt>
      <trkpt lat="45.03427" lon="5.34238">
        <ele>382.60000610352</ele>
        <time>2012-07-04T17:15:00.000Z</time>
      </trkpt>
      <trkpt lat="45.0343" lon="5.34232">
        <ele>385</ele>
        <time>2012-07-04T17:15:37.000Z</time>
      </trkpt>
      <trkpt lat="45.0343" lon="5.34234">
        <ele>385.60000610352</ele>
        <time>2012-07-04T17:15:54.000Z</time>
      </trkpt>
      <trkpt lat="45.03427" lon="5.34232">
        <ele>388.79998779297</ele>
        <time>2012-07-04T17:16:12.000Z</time>
      </trkpt>
      <trkpt lat="45.03427" lon="5.34229">
        <ele>389.39999389648</ele>
        <time>2012-07-04T17:16:22.000Z</time>
      </trkpt>
      <trkpt lat="45.03429" lon="5.34229">
        <ele>388.79998779297</ele>
        <time>2012-07-04T17:16:34.000Z</time>
      </trkpt>
      <trkpt lat="45.03429" lon="5.34229">
        <ele>388.79998779297</ele>
        <time>2012-07-04T17:16:37.000Z</time>
      </trkpt>
      <trkpt lat="45.03427" lon="5.34231">
        <ele>385</ele>
        <time>2012-07-04T17:16:51.000Z</time>
      </trkpt>
      <trkpt lat="45.03424" lon="5.34232">
        <ele>380.79998779297</ele>
        <time>2012-07-04T17:17:05.000Z</time>
      </trkpt>
      <trkpt lat="45.03425" lon="5.34237">
        <ele>380.20001220703</ele>
        <time>2012-07-04T17:17:25.000Z</time>
      </trkpt>
      <trkpt lat="45.03425" lon="5.34235">
        <ele>384.60000610352</ele>
        <time>2012-07-04T17:17:58.000Z</time>
      </trkpt>
      <trkpt lat="45.03428" lon="5.34235">
        <ele>382.20001220703</ele>
        <time>2012-07-04T17:18:10.000Z</time>
      </trkpt>
      <trkpt lat="45.0343" lon="5.34228">
        <ele>383.60000610352</ele>
        <time>2012-07-04T17:18:23.000Z</time>
      </trkpt>
      <trkpt lat="45.03432" lon="5.34218">
        <ele>383.60000610352</ele>
        <time>2012-07-04T17:18:27.000Z</time>
      </trkpt>
      <trkpt lat="45.03437" lon="5.34203">
        <ele>380.79998779297</ele>
        <time>2012-07-04T17:18:33.000Z</time>
      </trkpt>
      <trkpt lat="45.03444" lon="5.34181">
        <ele>376</ele>
        <time>2012-07-04T17:18:39.000Z</time>
      </trkpt>
      <trkpt lat="45.03446" lon="5.34167">
        <ele>369.60000610352</ele>
        <time>2012-07-04T17:18:44.000Z</time>
      </trkpt>
      <trkpt lat="45.03458" lon="5.34156">
        <ele>360.60000610352</ele>
        <time>2012-07-04T17:18:51.000Z</time>
      </trkpt>
      <trkpt lat="45.03466" lon="5.34152">
        <ele>357.60000610352</ele>
        <time>2012-07-04T17:18:54.000Z</time>
      </trkpt>
      <trkpt lat="45.03475" lon="5.34158">
        <ele>351.79998779297</ele>
        <time>2012-07-04T17:18:59.000Z</time>
      </trkpt>
      <trkpt lat="45.03484" lon="5.34161">
        <ele>350</ele>
        <time>2012-07-04T17:19:03.000Z</time>
      </trkpt>
      <trkpt lat="45.03494" lon="5.34165">
        <ele>349</ele>
        <time>2012-07-04T17:19:07.000Z</time>
      </trkpt>
      <trkpt lat="45.03503" lon="5.3417">
        <ele>348.60000610352</ele>
        <time>2012-07-04T17:19:11.000Z</time>
      </trkpt>
      <trkpt lat="45.03505" lon="5.34171">
        <ele>348.60000610352</ele>
        <time>2012-07-04T17:19:12.000Z</time>
      </trkpt>
      <trkpt lat="45.03516" lon="5.34176">
        <ele>347.60000610352</ele>
        <time>2012-07-04T17:19:17.000Z</time>
      </trkpt>
      <trkpt lat="45.03524" lon="5.34179">
        <ele>347.60000610352</ele>
        <time>2012-07-04T17:19:21.000Z</time>
      </trkpt>
      <trkpt lat="45.03532" lon="5.3418">
        <ele>348</ele>
        <time>2012-07-04T17:19:25.000Z</time>
      </trkpt>
      <trkpt lat="45.03542" lon="5.34185">
        <ele>350</ele>
        <time>2012-07-04T17:19:30.000Z</time>
      </trkpt>
      <trkpt lat="45.0355" lon="5.34189">
        <ele>349.39999389648</ele>
        <time>2012-07-04T17:19:33.000Z</time>
      </trkpt>
      <trkpt lat="45.0356" lon="5.34195">
        <ele>348</ele>
        <time>2012-07-04T17:19:38.000Z</time>
      </trkpt>
      <trkpt lat="45.03572" lon="5.34197">
        <ele>348</ele>
        <time>2012-07-04T17:19:43.000Z</time>
      </trkpt>
      <trkpt lat="45.03577" lon="5.34198">
        <ele>348.60000610352</ele>
        <time>2012-07-04T17:19:45.000Z</time>
      </trkpt>
      <trkpt lat="45.03593" lon="5.342">
        <ele>347</ele>
        <time>2012-07-04T17:19:51.000Z</time>
      </trkpt>
      <trkpt lat="45.03608" lon="5.34201">
        <ele>346.60000610352</ele>
        <time>2012-07-04T17:19:56.000Z</time>
      </trkpt>
      <trkpt lat="45.03617" lon="5.34202">
        <ele>348</ele>
        <time>2012-07-04T17:20:00.000Z</time>
      </trkpt>
      <trkpt lat="45.03628" lon="5.34201">
        <ele>349.39999389648</ele>
        <time>2012-07-04T17:20:05.000Z</time>
      </trkpt>
      <trkpt lat="45.0364" lon="5.34195">
        <ele>351.39999389648</ele>
        <time>2012-07-04T17:20:10.000Z</time>
      </trkpt>
      <trkpt lat="45.03654" lon="5.34191">
        <ele>352.39999389648</ele>
        <time>2012-07-04T17:20:16.000Z</time>
      </trkpt>
      <trkpt lat="45.03666" lon="5.34189">
        <ele>351.39999389648</ele>
        <time>2012-07-04T17:20:21.000Z</time>
      </trkpt>
      <trkpt lat="45.03679" lon="5.34185">
        <ele>352.79998779297</ele>
        <time>2012-07-04T17:20:26.000Z</time>
      </trkpt>
      <trkpt lat="45.03696" lon="5.34185">
        <ele>351.39999389648</ele>
        <time>2012-07-04T17:20:33.000Z</time>
      </trkpt>
      <trkpt lat="45.03705" lon="5.34186">
        <ele>351.79998779297</ele>
        <time>2012-07-04T17:20:38.000Z</time>
      </trkpt>
      <trkpt lat="45.03708" lon="5.34185">
        <ele>353.79998779297</ele>
        <time>2012-07-04T17:20:42.000Z</time>
      </trkpt>
      <trkpt lat="45.03718" lon="5.34187">
        <ele>354.79998779297</ele>
        <time>2012-07-04T17:20:46.000Z</time>
      </trkpt>
      <trkpt lat="45.03731" lon="5.34188">
        <ele>354.79998779297</ele>
        <time>2012-07-04T17:20:51.000Z</time>
      </trkpt>
      <trkpt lat="45.03744" lon="5.34188">
        <ele>354.79998779297</ele>
        <time>2012-07-04T17:20:56.000Z</time>
      </trkpt>
      <trkpt lat="45.03754" lon="5.34186">
        <ele>353.39999389648</ele>
        <time>2012-07-04T17:21:00.000Z</time>
      </trkpt>
      <trkpt lat="45.03765" lon="5.34183">
        <ele>351.79998779297</ele>
        <time>2012-07-04T17:21:04.000Z</time>
      </trkpt>
      <trkpt lat="45.03781" lon="5.34181">
        <ele>350</ele>
        <time>2012-07-04T17:21:09.000Z</time>
      </trkpt>
      <trkpt lat="45.03792" lon="5.34183">
        <ele>347.60000610352</ele>
        <time>2012-07-04T17:21:13.000Z</time>
      </trkpt>
      <trkpt lat="45.03805" lon="5.34189">
        <ele>346.60000610352</ele>
        <time>2012-07-04T17:21:18.000Z</time>
      </trkpt>
      <trkpt lat="45.03815" lon="5.34194">
        <ele>346.60000610352</ele>
        <time>2012-07-04T17:21:22.000Z</time>
      </trkpt>
      <trkpt lat="45.03831" lon="5.34202">
        <ele>346.60000610352</ele>
        <time>2012-07-04T17:21:28.000Z</time>
      </trkpt>
      <trkpt lat="45.03845" lon="5.34208">
        <ele>347.60000610352</ele>
        <time>2012-07-04T17:21:33.000Z</time>
      </trkpt>
      <trkpt lat="45.03854" lon="5.34212">
        <ele>349</ele>
        <time>2012-07-04T17:21:37.000Z</time>
      </trkpt>
      <trkpt lat="45.03863" lon="5.34214">
        <ele>350.39999389648</ele>
        <time>2012-07-04T17:21:41.000Z</time>
      </trkpt>
      <trkpt lat="45.03873" lon="5.34216">
        <ele>350</ele>
        <time>2012-07-04T17:21:45.000Z</time>
      </trkpt>
      <trkpt lat="45.03891" lon="5.34217">
        <ele>348.60000610352</ele>
        <time>2012-07-04T17:21:51.000Z</time>
      </trkpt>
      <trkpt lat="45.03894" lon="5.34218">
        <ele>348.60000610352</ele>
        <time>2012-07-04T17:21:52.000Z</time>
      </trkpt>
      <trkpt lat="45.0391" lon="5.34221">
        <ele>347</ele>
        <time>2012-07-04T17:21:58.000Z</time>
      </trkpt>
      <trkpt lat="45.03921" lon="5.34223">
        <ele>348</ele>
        <time>2012-07-04T17:22:02.000Z</time>
      </trkpt>
      <trkpt lat="45.03939" lon="5.34223">
        <ele>347.60000610352</ele>
        <time>2012-07-04T17:22:08.000Z</time>
      </trkpt>
      <trkpt lat="45.03945" lon="5.34222">
        <ele>347.60000610352</ele>
        <time>2012-07-04T17:22:10.000Z</time>
      </trkpt>
      <trkpt lat="45.03955" lon="5.34223">
        <ele>349.39999389648</ele>
        <time>2012-07-04T17:22:14.000Z</time>
      </trkpt>
      <trkpt lat="45.03965" lon="5.34216">
        <ele>353.79998779297</ele>
        <time>2012-07-04T17:22:19.000Z</time>
      </trkpt>
      <trkpt lat="45.03972" lon="5.34219">
        <ele>356.20001220703</ele>
        <time>2012-07-04T17:22:23.000Z</time>
      </trkpt>
      <trkpt lat="45.03978" lon="5.34223">
        <ele>357.60000610352</ele>
        <time>2012-07-04T17:22:26.000Z</time>
      </trkpt>
      <trkpt lat="45.03991" lon="5.34231">
        <ele>360.60000610352</ele>
        <time>2012-07-04T17:22:32.000Z</time>
      </trkpt>
      <trkpt lat="45.04003" lon="5.34241">
        <ele>359</ele>
        <time>2012-07-04T17:22:38.000Z</time>
      </trkpt>
      <trkpt lat="45.04011" lon="5.34249">
        <ele>359</ele>
        <time>2012-07-04T17:22:42.000Z</time>
      </trkpt>
      <trkpt lat="45.0402" lon="5.34255">
        <ele>358.60000610352</ele>
        <time>2012-07-04T17:22:46.000Z</time>
      </trkpt>
      <trkpt lat="45.04026" lon="5.34262">
        <ele>358.20001220703</ele>
        <time>2012-07-04T17:22:49.000Z</time>
      </trkpt>
      <trkpt lat="45.04028" lon="5.34264">
        <ele>357.60000610352</ele>
        <time>2012-07-04T17:22:50.000Z</time>
      </trkpt>
      <trkpt lat="45.04039" lon="5.34277">
        <ele>357.20001220703</ele>
        <time>2012-07-04T17:22:56.000Z</time>
      </trkpt>
      <trkpt lat="45.04054" lon="5.34283">
        <ele>354.79998779297</ele>
        <time>2012-07-04T17:23:02.000Z</time>
      </trkpt>
      <trkpt lat="45.04057" lon="5.34283">
        <ele>354.20001220703</ele>
        <time>2012-07-04T17:23:03.000Z</time>
      </trkpt>
      <trkpt lat="45.04063" lon="5.34284">
        <ele>353.79998779297</ele>
        <time>2012-07-04T17:23:05.000Z</time>
      </trkpt>
      <trkpt lat="45.04073" lon="5.34281">
        <ele>352.79998779297</ele>
        <time>2012-07-04T17:23:10.000Z</time>
      </trkpt>
      <trkpt lat="45.04092" lon="5.34279">
        <ele>350</ele>
        <time>2012-07-04T17:23:17.000Z</time>
      </trkpt>
      <trkpt lat="45.04109" lon="5.34286">
        <ele>348</ele>
        <time>2012-07-04T17:23:23.000Z</time>
      </trkpt>
      <trkpt lat="45.0412" lon="5.34298">
        <ele>346.60000610352</ele>
        <time>2012-07-04T17:23:28.000Z</time>
      </trkpt>
      <trkpt lat="45.04132" lon="5.3431">
        <ele>345.60000610352</ele>
        <time>2012-07-04T17:23:33.000Z</time>
      </trkpt>
      <trkpt lat="45.04144" lon="5.34319">
        <ele>345.60000610352</ele>
        <time>2012-07-04T17:23:38.000Z</time>
      </trkpt>
      <trkpt lat="45.04159" lon="5.34319">
        <ele>345.20001220703</ele>
        <time>2012-07-04T17:23:44.000Z</time>
      </trkpt>
      <trkpt lat="45.04167" lon="5.34316">
        <ele>344.60000610352</ele>
        <time>2012-07-04T17:23:47.000Z</time>
      </trkpt>
      <trkpt lat="45.04181" lon="5.34319">
        <ele>341.39999389648</ele>
        <time>2012-07-04T17:23:52.000Z</time>
      </trkpt>
      <trkpt lat="45.04197" lon="5.34318">
        <ele>341.79998779297</ele>
        <time>2012-07-04T17:23:58.000Z</time>
      </trkpt>
      <trkpt lat="45.0421" lon="5.34318">
        <ele>340.79998779297</ele>
        <time>2012-07-04T17:24:03.000Z</time>
      </trkpt>
      <trkpt lat="45.04227" lon="5.34317">
        <ele>339.39999389648</ele>
        <time>2012-07-04T17:24:09.000Z</time>
      </trkpt>
      <trkpt lat="45.04234" lon="5.34317">
        <ele>339.39999389648</ele>
        <time>2012-07-04T17:24:12.000Z</time>
      </trkpt>
      <trkpt lat="45.04245" lon="5.34317">
        <ele>339.39999389648</ele>
        <time>2012-07-04T17:24:16.000Z</time>
      </trkpt>
      <trkpt lat="45.0426" lon="5.34315">
        <ele>340.39999389648</ele>
        <time>2012-07-04T17:24:21.000Z</time>
      </trkpt>
      <trkpt lat="45.04272" lon="5.34316">
        <ele>339.39999389648</ele>
        <time>2012-07-04T17:24:25.000Z</time>
      </trkpt>
      <trkpt lat="45.04287" lon="5.34319">
        <ele>336.39999389648</ele>
        <time>2012-07-04T17:24:30.000Z</time>
      </trkpt>
      <trkpt lat="45.04305" lon="5.34324">
        <ele>332.60000610352</ele>
        <time>2012-07-04T17:24:35.000Z</time>
      </trkpt>
      <trkpt lat="45.04323" lon="5.34329">
        <ele>331.60000610352</ele>
        <time>2012-07-04T17:24:41.000Z</time>
      </trkpt>
      <trkpt lat="45.04335" lon="5.34332">
        <ele>329.20001220703</ele>
        <time>2012-07-04T17:24:45.000Z</time>
      </trkpt>
      <trkpt lat="45.04347" lon="5.34337">
        <ele>327.39999389648</ele>
        <time>2012-07-04T17:24:49.000Z</time>
      </trkpt>
      <trkpt lat="45.04361" lon="5.34341">
        <ele>325</ele>
        <time>2012-07-04T17:24:54.000Z</time>
      </trkpt>
      <trkpt lat="45.04373" lon="5.34351">
        <ele>324</ele>
        <time>2012-07-04T17:24:59.000Z</time>
      </trkpt>
      <trkpt lat="45.04387" lon="5.34357">
        <ele>324.39999389648</ele>
        <time>2012-07-04T17:25:04.000Z</time>
      </trkpt>
      <trkpt lat="45.04399" lon="5.34364">
        <ele>323</ele>
        <time>2012-07-04T17:25:09.000Z</time>
      </trkpt>
      <trkpt lat="45.04411" lon="5.34371">
        <ele>323.60000610352</ele>
        <time>2012-07-04T17:25:14.000Z</time>
      </trkpt>
      <trkpt lat="45.04423" lon="5.34375">
        <ele>325</ele>
        <time>2012-07-04T17:25:19.000Z</time>
      </trkpt>
      <trkpt lat="45.04433" lon="5.3438">
        <ele>324</ele>
        <time>2012-07-04T17:25:23.000Z</time>
      </trkpt>
      <trkpt lat="45.04444" lon="5.34386">
        <ele>323</ele>
        <time>2012-07-04T17:25:28.000Z</time>
      </trkpt>
      <trkpt lat="45.04454" lon="5.34393">
        <ele>323</ele>
        <time>2012-07-04T17:25:32.000Z</time>
      </trkpt>
      <trkpt lat="45.04469" lon="5.34399">
        <ele>321.20001220703</ele>
        <time>2012-07-04T17:25:38.000Z</time>
      </trkpt>
      <trkpt lat="45.04481" lon="5.34405">
        <ele>320.20001220703</ele>
        <time>2012-07-04T17:25:43.000Z</time>
      </trkpt>
      <trkpt lat="45.04495" lon="5.34414">
        <ele>319.60000610352</ele>
        <time>2012-07-04T17:25:49.000Z</time>
      </trkpt>
      <trkpt lat="45.04508" lon="5.34421">
        <ele>318.20001220703</ele>
        <time>2012-07-04T17:25:54.000Z</time>
      </trkpt>
      <trkpt lat="45.0452" lon="5.34426">
        <ele>318.20001220703</ele>
        <time>2012-07-04T17:25:59.000Z</time>
      </trkpt>
      <trkpt lat="45.04522" lon="5.34427">
        <ele>317.79998779297</ele>
        <time>2012-07-04T17:26:00.000Z</time>
      </trkpt>
      <trkpt lat="45.04533" lon="5.34431">
        <ele>316.39999389648</ele>
        <time>2012-07-04T17:26:05.000Z</time>
      </trkpt>
      <trkpt lat="45.04548" lon="5.34439">
        <ele>313</ele>
        <time>2012-07-04T17:26:11.000Z</time>
      </trkpt>
      <trkpt lat="45.04563" lon="5.34444">
        <ele>314.39999389648</ele>
        <time>2012-07-04T17:26:17.000Z</time>
      </trkpt>
      <trkpt lat="45.04574" lon="5.34448">
        <ele>315.39999389648</ele>
        <time>2012-07-04T17:26:21.000Z</time>
      </trkpt>
      <trkpt lat="45.04586" lon="5.34455">
        <ele>314.39999389648</ele>
        <time>2012-07-04T17:26:25.000Z</time>
      </trkpt>
      <trkpt lat="45.04596" lon="5.34463">
        <ele>312.39999389648</ele>
        <time>2012-07-04T17:26:29.000Z</time>
      </trkpt>
      <trkpt lat="45.04599" lon="5.34464">
        <ele>312.39999389648</ele>
        <time>2012-07-04T17:26:30.000Z</time>
      </trkpt>
      <trkpt lat="45.04616" lon="5.34462">
        <ele>310</ele>
        <time>2012-07-04T17:26:36.000Z</time>
      </trkpt>
      <trkpt lat="45.04621" lon="5.34454">
        <ele>308.60000610352</ele>
        <time>2012-07-04T17:26:39.000Z</time>
      </trkpt>
      <trkpt lat="45.04629" lon="5.3443">
        <ele>307.60000610352</ele>
        <time>2012-07-04T17:26:45.000Z</time>
      </trkpt>
      <trkpt lat="45.04636" lon="5.34412">
        <ele>307.20001220703</ele>
        <time>2012-07-04T17:26:50.000Z</time>
      </trkpt>
      <trkpt lat="45.04643" lon="5.34392">
        <ele>308.20001220703</ele>
        <time>2012-07-04T17:26:55.000Z</time>
      </trkpt>
      <trkpt lat="45.0465" lon="5.34373">
        <ele>308.20001220703</ele>
        <time>2012-07-04T17:27:00.000Z</time>
      </trkpt>
      <trkpt lat="45.04655" lon="5.34359">
        <ele>306.20001220703</ele>
        <time>2012-07-04T17:27:04.000Z</time>
      </trkpt>
      <trkpt lat="45.04662" lon="5.3435">
        <ele>304.20001220703</ele>
        <time>2012-07-04T17:27:08.000Z</time>
      </trkpt>
      <trkpt lat="45.04667" lon="5.34334">
        <ele>306.60000610352</ele>
        <time>2012-07-04T17:27:12.000Z</time>
      </trkpt>
      <trkpt lat="45.04673" lon="5.34317">
        <ele>304.20001220703</ele>
        <time>2012-07-04T17:27:17.000Z</time>
      </trkpt>
      <trkpt lat="45.04675" lon="5.34313">
        <ele>303.79998779297</ele>
        <time>2012-07-04T17:27:18.000Z</time>
      </trkpt>
      <trkpt lat="45.0468" lon="5.34299">
        <ele>302.79998779297</ele>
        <time>2012-07-04T17:27:23.000Z</time>
      </trkpt>
      <trkpt lat="45.04687" lon="5.34286">
        <ele>301.79998779297</ele>
        <time>2012-07-04T17:27:27.000Z</time>
      </trkpt>
      <trkpt lat="45.04693" lon="5.3427">
        <ele>300.39999389648</ele>
        <time>2012-07-04T17:27:32.000Z</time>
      </trkpt>
      <trkpt lat="45.04693" lon="5.34262">
        <ele>301</ele>
        <time>2012-07-04T17:27:34.000Z</time>
      </trkpt>
      <trkpt lat="45.04696" lon="5.34243">
        <ele>303.79998779297</ele>
        <time>2012-07-04T17:27:38.000Z</time>
      </trkpt>
      <trkpt lat="45.04701" lon="5.34227">
        <ele>302.79998779297</ele>
        <time>2012-07-04T17:27:42.000Z</time>
      </trkpt>
      <trkpt lat="45.0471" lon="5.3421">
        <ele>302.39999389648</ele>
        <time>2012-07-04T17:27:47.000Z</time>
      </trkpt>
      <trkpt lat="45.04713" lon="5.342">
        <ele>303.39999389648</ele>
        <time>2012-07-04T17:27:50.000Z</time>
      </trkpt>
      <trkpt lat="45.04718" lon="5.34189">
        <ele>302.39999389648</ele>
        <time>2012-07-04T17:27:53.000Z</time>
      </trkpt>
      <trkpt lat="45.04724" lon="5.34176">
        <ele>302.39999389648</ele>
        <time>2012-07-04T17:27:57.000Z</time>
      </trkpt>
      <trkpt lat="45.0473" lon="5.34162">
        <ele>301.39999389648</ele>
        <time>2012-07-04T17:28:01.000Z</time>
      </trkpt>
      <trkpt lat="45.04732" lon="5.3416">
        <ele>301.79998779297</ele>
        <time>2012-07-04T17:28:02.000Z</time>
      </trkpt>
      <trkpt lat="45.04747" lon="5.34138">
        <ele>303.79998779297</ele>
        <time>2012-07-04T17:28:09.000Z</time>
      </trkpt>
      <trkpt lat="45.04751" lon="5.34123">
        <ele>306.20001220703</ele>
        <time>2012-07-04T17:28:13.000Z</time>
      </trkpt>
      <trkpt lat="45.04753" lon="5.34118">
        <ele>305.79998779297</ele>
        <time>2012-07-04T17:28:14.000Z</time>
      </trkpt>
      <trkpt lat="45.04752" lon="5.3411">
        <ele>304.79998779297</ele>
        <time>2012-07-04T17:28:16.000Z</time>
      </trkpt>
      <trkpt lat="45.04747" lon="5.34088">
        <ele>303.39999389648</ele>
        <time>2012-07-04T17:28:21.000Z</time>
      </trkpt>
      <trkpt lat="45.04746" lon="5.34081">
        <ele>302.79998779297</ele>
        <time>2012-07-04T17:28:23.000Z</time>
      </trkpt>
      <trkpt lat="45.04736" lon="5.34064">
        <ele>302.39999389648</ele>
        <time>2012-07-04T17:28:29.000Z</time>
      </trkpt>
      <trkpt lat="45.04723" lon="5.34052">
        <ele>301.79998779297</ele>
        <time>2012-07-04T17:28:35.000Z</time>
      </trkpt>
      <trkpt lat="45.04716" lon="5.3405">
        <ele>301.39999389648</ele>
        <time>2012-07-04T17:28:38.000Z</time>
      </trkpt>
      <trkpt lat="45.04715" lon="5.34049">
        <ele>301.39999389648</ele>
        <time>2012-07-04T17:28:39.000Z</time>
      </trkpt>
    </trkseg>
  </trk>
</gpx>